<?xml version="1.0" encoding="UTF-8" standalone="no" ?>
<gpx xmlns="http://www.topografix.com/GPX/1/1" xmlns:xsi="http://www.w3.org/2001/XMLSchema-instance" xsi:schemaLocation="http://www.topografix.com/GPX/1/1 http://www.topografix.com/GPX/1/1/gpx.xsd" version="1.1" creator="VisuGPX - https://www.visugpx.com">
  <metadata>
    <name>Activité Sportractive</name>
    <desc><![CDATA[
]]></desc>
  </metadata>
  <trk>
    <name><![CDATA[Activité Sportractive]]></name>
    <trkseg>
      <trkpt lat="45.61065" lon="5.67852">
        <ele>433</ele>
        <time>2022-09-24T13:47:51.998Z</time>
      </trkpt>
      <trkpt lat="45.61065" lon="5.67852">
        <ele>433</ele>
        <time>2022-09-24T13:47:52.095Z</time>
      </trkpt>
      <trkpt lat="45.61059" lon="5.67863">
        <ele>434</ele>
        <time>2022-09-24T13:47:58.166Z</time>
      </trkpt>
      <trkpt lat="45.61053" lon="5.67873">
        <ele>435</ele>
        <time>2022-09-24T13:48:03.125Z</time>
      </trkpt>
      <trkpt lat="45.61045" lon="5.67885">
        <ele>435</ele>
        <time>2022-09-24T13:48:07.120Z</time>
      </trkpt>
      <trkpt lat="45.61038" lon="5.67895">
        <ele>435</ele>
        <time>2022-09-24T13:48:10.158Z</time>
      </trkpt>
      <trkpt lat="45.61029" lon="5.67905">
        <ele>435</ele>
        <time>2022-09-24T13:48:13.211Z</time>
      </trkpt>
      <trkpt lat="45.61018" lon="5.6792">
        <ele>435</ele>
        <time>2022-09-24T13:48:17.141Z</time>
      </trkpt>
      <trkpt lat="45.61007" lon="5.67934">
        <ele>435</ele>
        <time>2022-09-24T13:48:21.168Z</time>
      </trkpt>
      <trkpt lat="45.60998" lon="5.6795">
        <ele>435</ele>
        <time>2022-09-24T13:48:25.162Z</time>
      </trkpt>
      <trkpt lat="45.60991" lon="5.67967">
        <ele>435</ele>
        <time>2022-09-24T13:48:30.146Z</time>
      </trkpt>
      <trkpt lat="45.60987" lon="5.67987">
        <ele>436</ele>
        <time>2022-09-24T13:48:35.130Z</time>
      </trkpt>
      <trkpt lat="45.60984" lon="5.68003">
        <ele>436</ele>
        <time>2022-09-24T13:48:39.152Z</time>
      </trkpt>
      <trkpt lat="45.60981" lon="5.68021">
        <ele>436</ele>
        <time>2022-09-24T13:48:43.157Z</time>
      </trkpt>
      <trkpt lat="45.6098" lon="5.68041">
        <ele>436</ele>
        <time>2022-09-24T13:48:47.165Z</time>
      </trkpt>
      <trkpt lat="45.60979" lon="5.6806">
        <ele>437</ele>
        <time>2022-09-24T13:48:50.194Z</time>
      </trkpt>
      <trkpt lat="45.60977" lon="5.6808">
        <ele>437</ele>
        <time>2022-09-24T13:48:54.133Z</time>
      </trkpt>
      <trkpt lat="45.60974" lon="5.68101">
        <ele>438</ele>
        <time>2022-09-24T13:48:58.179Z</time>
      </trkpt>
      <trkpt lat="45.6097" lon="5.68122">
        <ele>438</ele>
        <time>2022-09-24T13:49:02.140Z</time>
      </trkpt>
      <trkpt lat="45.60967" lon="5.68142">
        <ele>438</ele>
        <time>2022-09-24T13:49:06.172Z</time>
      </trkpt>
      <trkpt lat="45.60965" lon="5.68165">
        <ele>439</ele>
        <time>2022-09-24T13:49:11.167Z</time>
      </trkpt>
      <trkpt lat="45.60966" lon="5.68183">
        <ele>439</ele>
        <time>2022-09-24T13:49:15.136Z</time>
      </trkpt>
      <trkpt lat="45.60967" lon="5.682">
        <ele>440</ele>
        <time>2022-09-24T13:49:19.168Z</time>
      </trkpt>
      <trkpt lat="45.60963" lon="5.68218">
        <ele>440</ele>
        <time>2022-09-24T13:49:23.140Z</time>
      </trkpt>
      <trkpt lat="45.60954" lon="5.68231">
        <ele>441</ele>
        <time>2022-09-24T13:49:26.172Z</time>
      </trkpt>
      <trkpt lat="45.60943" lon="5.68249">
        <ele>441</ele>
        <time>2022-09-24T13:49:30.158Z</time>
      </trkpt>
      <trkpt lat="45.60936" lon="5.68269">
        <ele>442</ele>
        <time>2022-09-24T13:49:35.135Z</time>
      </trkpt>
      <trkpt lat="45.60939" lon="5.68291">
        <ele>442</ele>
        <time>2022-09-24T13:49:40.176Z</time>
      </trkpt>
      <trkpt lat="45.60942" lon="5.68307">
        <ele>443</ele>
        <time>2022-09-24T13:49:44.153Z</time>
      </trkpt>
      <trkpt lat="45.60945" lon="5.68325">
        <ele>443</ele>
        <time>2022-09-24T13:49:49.178Z</time>
      </trkpt>
      <trkpt lat="45.60948" lon="5.68339">
        <ele>444</ele>
        <time>2022-09-24T13:49:53.177Z</time>
      </trkpt>
      <trkpt lat="45.60949" lon="5.68353">
        <ele>444</ele>
        <time>2022-09-24T13:49:57.157Z</time>
      </trkpt>
      <trkpt lat="45.60951" lon="5.68367">
        <ele>445</ele>
        <time>2022-09-24T13:50:01.176Z</time>
      </trkpt>
      <trkpt lat="45.60953" lon="5.6838">
        <ele>445</ele>
        <time>2022-09-24T13:50:05.179Z</time>
      </trkpt>
      <trkpt lat="45.60955" lon="5.68394">
        <ele>446</ele>
        <time>2022-09-24T13:50:09.172Z</time>
      </trkpt>
      <trkpt lat="45.60957" lon="5.68407">
        <ele>446</ele>
        <time>2022-09-24T13:50:13.110Z</time>
      </trkpt>
      <trkpt lat="45.60959" lon="5.68421">
        <ele>447</ele>
        <time>2022-09-24T13:50:17.138Z</time>
      </trkpt>
      <trkpt lat="45.60962" lon="5.68435">
        <ele>448</ele>
        <time>2022-09-24T13:50:21.132Z</time>
      </trkpt>
      <trkpt lat="45.60964" lon="5.68448">
        <ele>449</ele>
        <time>2022-09-24T13:50:25.174Z</time>
      </trkpt>
      <trkpt lat="45.60969" lon="5.68459">
        <ele>449</ele>
        <time>2022-09-24T13:50:29.174Z</time>
      </trkpt>
      <trkpt lat="45.60975" lon="5.6847">
        <ele>450</ele>
        <time>2022-09-24T13:50:33.146Z</time>
      </trkpt>
      <trkpt lat="45.60983" lon="5.6848">
        <ele>451</ele>
        <time>2022-09-24T13:50:38.125Z</time>
      </trkpt>
      <trkpt lat="45.60991" lon="5.6849">
        <ele>452</ele>
        <time>2022-09-24T13:50:43.151Z</time>
      </trkpt>
      <trkpt lat="45.61" lon="5.68499">
        <ele>453</ele>
        <time>2022-09-24T13:50:48.144Z</time>
      </trkpt>
      <trkpt lat="45.61007" lon="5.6851">
        <ele>454</ele>
        <time>2022-09-24T13:50:52.105Z</time>
      </trkpt>
      <trkpt lat="45.61012" lon="5.68522">
        <ele>455</ele>
        <time>2022-09-24T13:50:56.138Z</time>
      </trkpt>
      <trkpt lat="45.61012" lon="5.68538">
        <ele>456</ele>
        <time>2022-09-24T13:51:01.137Z</time>
      </trkpt>
      <trkpt lat="45.6101" lon="5.6855">
        <ele>458</ele>
        <time>2022-09-24T13:51:05.168Z</time>
      </trkpt>
      <trkpt lat="45.61006" lon="5.68564">
        <ele>459</ele>
        <time>2022-09-24T13:51:10.141Z</time>
      </trkpt>
      <trkpt lat="45.61001" lon="5.68579">
        <ele>461</ele>
        <time>2022-09-24T13:51:15.130Z</time>
      </trkpt>
      <trkpt lat="45.60997" lon="5.68592">
        <ele>462</ele>
        <time>2022-09-24T13:51:20.151Z</time>
      </trkpt>
      <trkpt lat="45.60993" lon="5.68605">
        <ele>464</ele>
        <time>2022-09-24T13:51:24.174Z</time>
      </trkpt>
      <trkpt lat="45.60989" lon="5.68619">
        <ele>465</ele>
        <time>2022-09-24T13:51:29.176Z</time>
      </trkpt>
      <trkpt lat="45.60985" lon="5.68632">
        <ele>467</ele>
        <time>2022-09-24T13:51:34.176Z</time>
      </trkpt>
      <trkpt lat="45.60983" lon="5.68647">
        <ele>468</ele>
        <time>2022-09-24T13:51:39.195Z</time>
      </trkpt>
      <trkpt lat="45.60981" lon="5.68662">
        <ele>470</ele>
        <time>2022-09-24T13:51:44.149Z</time>
      </trkpt>
      <trkpt lat="45.60979" lon="5.68676">
        <ele>471</ele>
        <time>2022-09-24T13:51:49.153Z</time>
      </trkpt>
      <trkpt lat="45.60978" lon="5.68689">
        <ele>472</ele>
        <time>2022-09-24T13:51:54.145Z</time>
      </trkpt>
      <trkpt lat="45.60977" lon="5.68703">
        <ele>473</ele>
        <time>2022-09-24T13:51:59.146Z</time>
      </trkpt>
      <trkpt lat="45.60977" lon="5.68718">
        <ele>474</ele>
        <time>2022-09-24T13:52:04.152Z</time>
      </trkpt>
      <trkpt lat="45.60979" lon="5.6873">
        <ele>475</ele>
        <time>2022-09-24T13:52:09.161Z</time>
      </trkpt>
      <trkpt lat="45.60982" lon="5.68745">
        <ele>477</ele>
        <time>2022-09-24T13:52:15.135Z</time>
      </trkpt>
      <trkpt lat="45.60984" lon="5.68757">
        <ele>478</ele>
        <time>2022-09-24T13:52:20.141Z</time>
      </trkpt>
      <trkpt lat="45.60985" lon="5.68772">
        <ele>479</ele>
        <time>2022-09-24T13:52:25.157Z</time>
      </trkpt>
      <trkpt lat="45.60986" lon="5.68787">
        <ele>480</ele>
        <time>2022-09-24T13:52:30.202Z</time>
      </trkpt>
      <trkpt lat="45.60985" lon="5.68802">
        <ele>481</ele>
        <time>2022-09-24T13:52:36.146Z</time>
      </trkpt>
      <trkpt lat="45.60983" lon="5.68815">
        <ele>482</ele>
        <time>2022-09-24T13:52:41.141Z</time>
      </trkpt>
      <trkpt lat="45.60981" lon="5.68828">
        <ele>483</ele>
        <time>2022-09-24T13:52:46.148Z</time>
      </trkpt>
      <trkpt lat="45.60979" lon="5.68842">
        <ele>485</ele>
        <time>2022-09-24T13:52:51.199Z</time>
      </trkpt>
      <trkpt lat="45.60978" lon="5.68857">
        <ele>486</ele>
        <time>2022-09-24T13:52:56.205Z</time>
      </trkpt>
      <trkpt lat="45.60976" lon="5.68872">
        <ele>488</ele>
        <time>2022-09-24T13:53:02.167Z</time>
      </trkpt>
      <trkpt lat="45.60973" lon="5.68887">
        <ele>489</ele>
        <time>2022-09-24T13:53:08.141Z</time>
      </trkpt>
      <trkpt lat="45.60971" lon="5.689">
        <ele>491</ele>
        <time>2022-09-24T13:53:13.151Z</time>
      </trkpt>
      <trkpt lat="45.60969" lon="5.68914">
        <ele>492</ele>
        <time>2022-09-24T13:53:18.157Z</time>
      </trkpt>
      <trkpt lat="45.60966" lon="5.68928">
        <ele>494</ele>
        <time>2022-09-24T13:53:22.157Z</time>
      </trkpt>
      <trkpt lat="45.60962" lon="5.6894">
        <ele>495</ele>
        <time>2022-09-24T13:53:26.175Z</time>
      </trkpt>
      <trkpt lat="45.60958" lon="5.68952">
        <ele>496</ele>
        <time>2022-09-24T13:53:31.159Z</time>
      </trkpt>
      <trkpt lat="45.60953" lon="5.68965">
        <ele>497</ele>
        <time>2022-09-24T13:53:36.153Z</time>
      </trkpt>
      <trkpt lat="45.6095" lon="5.68979">
        <ele>497</ele>
        <time>2022-09-24T13:53:41.185Z</time>
      </trkpt>
      <trkpt lat="45.60946" lon="5.68992">
        <ele>498</ele>
        <time>2022-09-24T13:53:46.197Z</time>
      </trkpt>
      <trkpt lat="45.60943" lon="5.69006">
        <ele>498</ele>
        <time>2022-09-24T13:53:51.166Z</time>
      </trkpt>
      <trkpt lat="45.60941" lon="5.69021">
        <ele>499</ele>
        <time>2022-09-24T13:53:57.175Z</time>
      </trkpt>
      <trkpt lat="45.6094" lon="5.69035">
        <ele>500</ele>
        <time>2022-09-24T13:54:02.115Z</time>
      </trkpt>
      <trkpt lat="45.60938" lon="5.69049">
        <ele>501</ele>
        <time>2022-09-24T13:54:07.159Z</time>
      </trkpt>
      <trkpt lat="45.60937" lon="5.69063">
        <ele>501</ele>
        <time>2022-09-24T13:54:12.155Z</time>
      </trkpt>
      <trkpt lat="45.60936" lon="5.69078">
        <ele>502</ele>
        <time>2022-09-24T13:54:17.148Z</time>
      </trkpt>
      <trkpt lat="45.60933" lon="5.69092">
        <ele>503</ele>
        <time>2022-09-24T13:54:22.162Z</time>
      </trkpt>
      <trkpt lat="45.6093" lon="5.69106">
        <ele>505</ele>
        <time>2022-09-24T13:54:27.172Z</time>
      </trkpt>
      <trkpt lat="45.60927" lon="5.6912">
        <ele>506</ele>
        <time>2022-09-24T13:54:32.160Z</time>
      </trkpt>
      <trkpt lat="45.60924" lon="5.69135">
        <ele>507</ele>
        <time>2022-09-24T13:54:37.162Z</time>
      </trkpt>
      <trkpt lat="45.60921" lon="5.69148">
        <ele>508</ele>
        <time>2022-09-24T13:54:42.166Z</time>
      </trkpt>
      <trkpt lat="45.60918" lon="5.69163">
        <ele>509</ele>
        <time>2022-09-24T13:54:47.155Z</time>
      </trkpt>
      <trkpt lat="45.60916" lon="5.69176">
        <ele>509</ele>
        <time>2022-09-24T13:54:52.160Z</time>
      </trkpt>
      <trkpt lat="45.60913" lon="5.69191">
        <ele>510</ele>
        <time>2022-09-24T13:54:57.142Z</time>
      </trkpt>
      <trkpt lat="45.60911" lon="5.69206">
        <ele>511</ele>
        <time>2022-09-24T13:55:02.153Z</time>
      </trkpt>
      <trkpt lat="45.60908" lon="5.6922">
        <ele>512</ele>
        <time>2022-09-24T13:55:07.188Z</time>
      </trkpt>
      <trkpt lat="45.60906" lon="5.69234">
        <ele>513</ele>
        <time>2022-09-24T13:55:12.179Z</time>
      </trkpt>
      <trkpt lat="45.60903" lon="5.69248">
        <ele>514</ele>
        <time>2022-09-24T13:55:17.155Z</time>
      </trkpt>
      <trkpt lat="45.60901" lon="5.69261">
        <ele>514</ele>
        <time>2022-09-24T13:55:22.172Z</time>
      </trkpt>
      <trkpt lat="45.60898" lon="5.69275">
        <ele>515</ele>
        <time>2022-09-24T13:55:27.183Z</time>
      </trkpt>
      <trkpt lat="45.60895" lon="5.69288">
        <ele>516</ele>
        <time>2022-09-24T13:55:31.150Z</time>
      </trkpt>
      <trkpt lat="45.6089" lon="5.693">
        <ele>517</ele>
        <time>2022-09-24T13:55:36.136Z</time>
      </trkpt>
      <trkpt lat="45.60886" lon="5.69315">
        <ele>518</ele>
        <time>2022-09-24T13:55:41.150Z</time>
      </trkpt>
      <trkpt lat="45.60882" lon="5.69328">
        <ele>519</ele>
        <time>2022-09-24T13:55:46.151Z</time>
      </trkpt>
      <trkpt lat="45.60878" lon="5.6934">
        <ele>520</ele>
        <time>2022-09-24T13:55:50.175Z</time>
      </trkpt>
      <trkpt lat="45.60875" lon="5.69352">
        <ele>520</ele>
        <time>2022-09-24T13:55:54.153Z</time>
      </trkpt>
      <trkpt lat="45.60871" lon="5.69367">
        <ele>521</ele>
        <time>2022-09-24T13:55:59.143Z</time>
      </trkpt>
      <trkpt lat="45.60867" lon="5.6938">
        <ele>522</ele>
        <time>2022-09-24T13:56:04.137Z</time>
      </trkpt>
      <trkpt lat="45.60861" lon="5.69391">
        <ele>522</ele>
        <time>2022-09-24T13:56:09.190Z</time>
      </trkpt>
      <trkpt lat="45.60853" lon="5.69402">
        <ele>523</ele>
        <time>2022-09-24T13:56:14.162Z</time>
      </trkpt>
      <trkpt lat="45.60847" lon="5.69411">
        <ele>523</ele>
        <time>2022-09-24T13:56:18.141Z</time>
      </trkpt>
      <trkpt lat="45.60842" lon="5.69425">
        <ele>524</ele>
        <time>2022-09-24T13:56:23.177Z</time>
      </trkpt>
      <trkpt lat="45.60839" lon="5.69439">
        <ele>524</ele>
        <time>2022-09-24T13:56:28.127Z</time>
      </trkpt>
      <trkpt lat="45.60835" lon="5.69454">
        <ele>525</ele>
        <time>2022-09-24T13:56:33.138Z</time>
      </trkpt>
      <trkpt lat="45.60831" lon="5.69469">
        <ele>526</ele>
        <time>2022-09-24T13:56:38.147Z</time>
      </trkpt>
      <trkpt lat="45.60829" lon="5.69482">
        <ele>526</ele>
        <time>2022-09-24T13:56:42.181Z</time>
      </trkpt>
      <trkpt lat="45.60827" lon="5.69495">
        <ele>527</ele>
        <time>2022-09-24T13:56:46.156Z</time>
      </trkpt>
      <trkpt lat="45.60826" lon="5.69509">
        <ele>528</ele>
        <time>2022-09-24T13:56:50.164Z</time>
      </trkpt>
      <trkpt lat="45.60826" lon="5.69524">
        <ele>528</ele>
        <time>2022-09-24T13:56:54.192Z</time>
      </trkpt>
      <trkpt lat="45.60826" lon="5.69539">
        <ele>529</ele>
        <time>2022-09-24T13:56:58.156Z</time>
      </trkpt>
      <trkpt lat="45.60825" lon="5.69553">
        <ele>530</ele>
        <time>2022-09-24T13:57:02.176Z</time>
      </trkpt>
      <trkpt lat="45.60823" lon="5.69565">
        <ele>531</ele>
        <time>2022-09-24T13:57:06.174Z</time>
      </trkpt>
      <trkpt lat="45.6082" lon="5.69578">
        <ele>532</ele>
        <time>2022-09-24T13:57:10.176Z</time>
      </trkpt>
      <trkpt lat="45.60817" lon="5.69592">
        <ele>533</ele>
        <time>2022-09-24T13:57:14.170Z</time>
      </trkpt>
      <trkpt lat="45.60813" lon="5.69606">
        <ele>534</ele>
        <time>2022-09-24T13:57:18.131Z</time>
      </trkpt>
      <trkpt lat="45.60811" lon="5.69619">
        <ele>534</ele>
        <time>2022-09-24T13:57:22.155Z</time>
      </trkpt>
      <trkpt lat="45.60809" lon="5.69633">
        <ele>535</ele>
        <time>2022-09-24T13:57:26.175Z</time>
      </trkpt>
      <trkpt lat="45.60806" lon="5.69648">
        <ele>536</ele>
        <time>2022-09-24T13:57:30.155Z</time>
      </trkpt>
      <trkpt lat="45.60804" lon="5.69662">
        <ele>537</ele>
        <time>2022-09-24T13:57:34.147Z</time>
      </trkpt>
      <trkpt lat="45.60801" lon="5.69676">
        <ele>538</ele>
        <time>2022-09-24T13:57:38.173Z</time>
      </trkpt>
      <trkpt lat="45.60798" lon="5.6969">
        <ele>538</ele>
        <time>2022-09-24T13:57:42.126Z</time>
      </trkpt>
      <trkpt lat="45.60796" lon="5.69705">
        <ele>539</ele>
        <time>2022-09-24T13:57:46.162Z</time>
      </trkpt>
      <trkpt lat="45.60794" lon="5.69719">
        <ele>540</ele>
        <time>2022-09-24T13:57:50.173Z</time>
      </trkpt>
      <trkpt lat="45.60791" lon="5.69733">
        <ele>540</ele>
        <time>2022-09-24T13:57:54.173Z</time>
      </trkpt>
      <trkpt lat="45.60789" lon="5.69748">
        <ele>541</ele>
        <time>2022-09-24T13:57:58.156Z</time>
      </trkpt>
      <trkpt lat="45.60788" lon="5.69763">
        <ele>541</ele>
        <time>2022-09-24T13:58:02.197Z</time>
      </trkpt>
      <trkpt lat="45.60789" lon="5.6978">
        <ele>542</ele>
        <time>2022-09-24T13:58:06.151Z</time>
      </trkpt>
      <trkpt lat="45.60791" lon="5.69796">
        <ele>543</ele>
        <time>2022-09-24T13:58:10.187Z</time>
      </trkpt>
      <trkpt lat="45.60797" lon="5.6981">
        <ele>544</ele>
        <time>2022-09-24T13:58:14.180Z</time>
      </trkpt>
      <trkpt lat="45.60805" lon="5.69823">
        <ele>545</ele>
        <time>2022-09-24T13:58:18.189Z</time>
      </trkpt>
      <trkpt lat="45.60813" lon="5.69836">
        <ele>546</ele>
        <time>2022-09-24T13:58:22.163Z</time>
      </trkpt>
      <trkpt lat="45.6082" lon="5.69848">
        <ele>547</ele>
        <time>2022-09-24T13:58:26.187Z</time>
      </trkpt>
      <trkpt lat="45.60826" lon="5.69867">
        <ele>548</ele>
        <time>2022-09-24T13:58:30.177Z</time>
      </trkpt>
      <trkpt lat="45.60831" lon="5.69883">
        <ele>549</ele>
        <time>2022-09-24T13:58:33.145Z</time>
      </trkpt>
      <trkpt lat="45.60835" lon="5.69906">
        <ele>550</ele>
        <time>2022-09-24T13:58:37.119Z</time>
      </trkpt>
      <trkpt lat="45.60838" lon="5.69932">
        <ele>551</ele>
        <time>2022-09-24T13:58:41.173Z</time>
      </trkpt>
      <trkpt lat="45.60838" lon="5.69962">
        <ele>552</ele>
        <time>2022-09-24T13:58:46.153Z</time>
      </trkpt>
      <trkpt lat="45.60836" lon="5.69985">
        <ele>553</ele>
        <time>2022-09-24T13:58:51.187Z</time>
      </trkpt>
      <trkpt lat="45.60833" lon="5.70006">
        <ele>554</ele>
        <time>2022-09-24T13:58:56.212Z</time>
      </trkpt>
      <trkpt lat="45.60831" lon="5.70024">
        <ele>554</ele>
        <time>2022-09-24T13:59:00.139Z</time>
      </trkpt>
      <trkpt lat="45.60828" lon="5.70042">
        <ele>555</ele>
        <time>2022-09-24T13:59:04.197Z</time>
      </trkpt>
      <trkpt lat="45.60826" lon="5.70059">
        <ele>555</ele>
        <time>2022-09-24T13:59:08.169Z</time>
      </trkpt>
      <trkpt lat="45.60822" lon="5.70078">
        <ele>555</ele>
        <time>2022-09-24T13:59:12.158Z</time>
      </trkpt>
      <trkpt lat="45.6082" lon="5.70096">
        <ele>556</ele>
        <time>2022-09-24T13:59:16.145Z</time>
      </trkpt>
      <trkpt lat="45.60817" lon="5.70114">
        <ele>556</ele>
        <time>2022-09-24T13:59:20.164Z</time>
      </trkpt>
      <trkpt lat="45.60816" lon="5.70132">
        <ele>556</ele>
        <time>2022-09-24T13:59:24.128Z</time>
      </trkpt>
      <trkpt lat="45.60815" lon="5.70149">
        <ele>557</ele>
        <time>2022-09-24T13:59:28.150Z</time>
      </trkpt>
      <trkpt lat="45.60813" lon="5.70166">
        <ele>557</ele>
        <time>2022-09-24T13:59:32.164Z</time>
      </trkpt>
      <trkpt lat="45.60811" lon="5.70184">
        <ele>558</ele>
        <time>2022-09-24T13:59:36.151Z</time>
      </trkpt>
      <trkpt lat="45.6081" lon="5.70201">
        <ele>558</ele>
        <time>2022-09-24T13:59:40.175Z</time>
      </trkpt>
      <trkpt lat="45.6081" lon="5.70218">
        <ele>559</ele>
        <time>2022-09-24T13:59:44.188Z</time>
      </trkpt>
      <trkpt lat="45.60811" lon="5.70235">
        <ele>560</ele>
        <time>2022-09-24T13:59:48.169Z</time>
      </trkpt>
      <trkpt lat="45.60812" lon="5.70251">
        <ele>560</ele>
        <time>2022-09-24T13:59:52.186Z</time>
      </trkpt>
      <trkpt lat="45.60813" lon="5.70268">
        <ele>561</ele>
        <time>2022-09-24T13:59:56.179Z</time>
      </trkpt>
      <trkpt lat="45.60815" lon="5.70284">
        <ele>562</ele>
        <time>2022-09-24T14:00:00.168Z</time>
      </trkpt>
      <trkpt lat="45.60816" lon="5.70298">
        <ele>563</ele>
        <time>2022-09-24T14:00:04.182Z</time>
      </trkpt>
      <trkpt lat="45.6082" lon="5.70313">
        <ele>564</ele>
        <time>2022-09-24T14:00:09.135Z</time>
      </trkpt>
      <trkpt lat="45.60826" lon="5.70323">
        <ele>566</ele>
        <time>2022-09-24T14:00:13.148Z</time>
      </trkpt>
      <trkpt lat="45.60834" lon="5.70331">
        <ele>567</ele>
        <time>2022-09-24T14:00:17.167Z</time>
      </trkpt>
      <trkpt lat="45.60844" lon="5.70336">
        <ele>568</ele>
        <time>2022-09-24T14:00:22.175Z</time>
      </trkpt>
      <trkpt lat="45.60852" lon="5.70343">
        <ele>569</ele>
        <time>2022-09-24T14:00:26.127Z</time>
      </trkpt>
      <trkpt lat="45.60861" lon="5.7035">
        <ele>570</ele>
        <time>2022-09-24T14:00:30.168Z</time>
      </trkpt>
      <trkpt lat="45.60869" lon="5.70356">
        <ele>571</ele>
        <time>2022-09-24T14:00:34.141Z</time>
      </trkpt>
      <trkpt lat="45.60878" lon="5.70363">
        <ele>573</ele>
        <time>2022-09-24T14:00:39.149Z</time>
      </trkpt>
      <trkpt lat="45.60887" lon="5.70371">
        <ele>574</ele>
        <time>2022-09-24T14:00:44.150Z</time>
      </trkpt>
      <trkpt lat="45.60896" lon="5.70377">
        <ele>575</ele>
        <time>2022-09-24T14:00:49.176Z</time>
      </trkpt>
      <trkpt lat="45.60907" lon="5.7038">
        <ele>575</ele>
        <time>2022-09-24T14:00:54.234Z</time>
      </trkpt>
      <trkpt lat="45.60917" lon="5.70376">
        <ele>576</ele>
        <time>2022-09-24T14:00:59.177Z</time>
      </trkpt>
      <trkpt lat="45.60925" lon="5.70366">
        <ele>577</ele>
        <time>2022-09-24T14:01:04.190Z</time>
      </trkpt>
      <trkpt lat="45.6093" lon="5.70355">
        <ele>577</ele>
        <time>2022-09-24T14:01:08.132Z</time>
      </trkpt>
      <trkpt lat="45.60935" lon="5.70344">
        <ele>577</ele>
        <time>2022-09-24T14:01:12.147Z</time>
      </trkpt>
      <trkpt lat="45.6094" lon="5.70332">
        <ele>578</ele>
        <time>2022-09-24T14:01:16.196Z</time>
      </trkpt>
      <trkpt lat="45.60944" lon="5.7032">
        <ele>578</ele>
        <time>2022-09-24T14:01:20.181Z</time>
      </trkpt>
      <trkpt lat="45.60949" lon="5.70309">
        <ele>579</ele>
        <time>2022-09-24T14:01:24.168Z</time>
      </trkpt>
      <trkpt lat="45.60954" lon="5.70296">
        <ele>579</ele>
        <time>2022-09-24T14:01:29.142Z</time>
      </trkpt>
      <trkpt lat="45.6096" lon="5.70283">
        <ele>580</ele>
        <time>2022-09-24T14:01:34.191Z</time>
      </trkpt>
      <trkpt lat="45.60965" lon="5.70271">
        <ele>581</ele>
        <time>2022-09-24T14:01:38.160Z</time>
      </trkpt>
      <trkpt lat="45.60969" lon="5.70259">
        <ele>582</ele>
        <time>2022-09-24T14:01:42.174Z</time>
      </trkpt>
      <trkpt lat="45.60974" lon="5.70245">
        <ele>582</ele>
        <time>2022-09-24T14:01:47.154Z</time>
      </trkpt>
      <trkpt lat="45.60979" lon="5.70233">
        <ele>583</ele>
        <time>2022-09-24T14:01:51.185Z</time>
      </trkpt>
      <trkpt lat="45.60984" lon="5.70223">
        <ele>584</ele>
        <time>2022-09-24T14:01:55.160Z</time>
      </trkpt>
      <trkpt lat="45.60992" lon="5.70211">
        <ele>585</ele>
        <time>2022-09-24T14:02:00.179Z</time>
      </trkpt>
      <trkpt lat="45.60999" lon="5.70204">
        <ele>586</ele>
        <time>2022-09-24T14:02:04.161Z</time>
      </trkpt>
      <trkpt lat="45.61008" lon="5.70196">
        <ele>587</ele>
        <time>2022-09-24T14:02:09.168Z</time>
      </trkpt>
      <trkpt lat="45.61018" lon="5.70189">
        <ele>588</ele>
        <time>2022-09-24T14:02:14.189Z</time>
      </trkpt>
      <trkpt lat="45.61028" lon="5.7018">
        <ele>589</ele>
        <time>2022-09-24T14:02:19.164Z</time>
      </trkpt>
      <trkpt lat="45.61037" lon="5.70173">
        <ele>590</ele>
        <time>2022-09-24T14:02:24.172Z</time>
      </trkpt>
      <trkpt lat="45.61047" lon="5.70166">
        <ele>591</ele>
        <time>2022-09-24T14:02:29.176Z</time>
      </trkpt>
      <trkpt lat="45.61055" lon="5.7016">
        <ele>592</ele>
        <time>2022-09-24T14:02:33.140Z</time>
      </trkpt>
      <trkpt lat="45.61063" lon="5.70154">
        <ele>592</ele>
        <time>2022-09-24T14:02:37.194Z</time>
      </trkpt>
      <trkpt lat="45.61071" lon="5.70146">
        <ele>593</ele>
        <time>2022-09-24T14:02:41.159Z</time>
      </trkpt>
      <trkpt lat="45.61079" lon="5.70138">
        <ele>594</ele>
        <time>2022-09-24T14:02:45.159Z</time>
      </trkpt>
      <trkpt lat="45.61085" lon="5.70129">
        <ele>595</ele>
        <time>2022-09-24T14:02:49.141Z</time>
      </trkpt>
      <trkpt lat="45.61091" lon="5.70118">
        <ele>595</ele>
        <time>2022-09-24T14:02:53.180Z</time>
      </trkpt>
      <trkpt lat="45.61096" lon="5.70105">
        <ele>596</ele>
        <time>2022-09-24T14:03:00.183Z</time>
      </trkpt>
      <trkpt lat="45.61101" lon="5.70092">
        <ele>597</ele>
        <time>2022-09-24T14:03:04.156Z</time>
      </trkpt>
      <trkpt lat="45.61107" lon="5.70079">
        <ele>598</ele>
        <time>2022-09-24T14:03:08.156Z</time>
      </trkpt>
      <trkpt lat="45.61114" lon="5.70067">
        <ele>598</ele>
        <time>2022-09-24T14:03:12.162Z</time>
      </trkpt>
      <trkpt lat="45.61119" lon="5.70055">
        <ele>599</ele>
        <time>2022-09-24T14:03:16.148Z</time>
      </trkpt>
      <trkpt lat="45.61125" lon="5.70044">
        <ele>599</ele>
        <time>2022-09-24T14:03:20.148Z</time>
      </trkpt>
      <trkpt lat="45.61131" lon="5.70033">
        <ele>600</ele>
        <time>2022-09-24T14:03:24.131Z</time>
      </trkpt>
      <trkpt lat="45.61137" lon="5.70022">
        <ele>600</ele>
        <time>2022-09-24T14:03:28.130Z</time>
      </trkpt>
      <trkpt lat="45.61142" lon="5.7001">
        <ele>601</ele>
        <time>2022-09-24T14:03:32.088Z</time>
      </trkpt>
      <trkpt lat="45.61148" lon="5.69998">
        <ele>602</ele>
        <time>2022-09-24T14:03:36.183Z</time>
      </trkpt>
      <trkpt lat="45.61152" lon="5.69986">
        <ele>602</ele>
        <time>2022-09-24T14:03:40.215Z</time>
      </trkpt>
      <trkpt lat="45.61155" lon="5.69974">
        <ele>603</ele>
        <time>2022-09-24T14:03:44.160Z</time>
      </trkpt>
      <trkpt lat="45.61159" lon="5.69962">
        <ele>604</ele>
        <time>2022-09-24T14:03:48.130Z</time>
      </trkpt>
      <trkpt lat="45.6116" lon="5.69947">
        <ele>605</ele>
        <time>2022-09-24T14:03:53.171Z</time>
      </trkpt>
      <trkpt lat="45.61161" lon="5.69939">
        <ele>608</ele>
        <time>2022-09-24T14:04:18.174Z</time>
      </trkpt>
      <trkpt lat="45.61161" lon="5.69939">
        <ele>608</ele>
        <time>2022-09-24T14:05:05.183Z</time>
      </trkpt>
      <trkpt lat="45.61162" lon="5.69907">
        <ele>613</ele>
        <time>2022-09-24T14:05:06.144Z</time>
      </trkpt>
      <trkpt lat="45.61163" lon="5.69891">
        <ele>614</ele>
        <time>2022-09-24T14:05:11.210Z</time>
      </trkpt>
      <trkpt lat="45.61164" lon="5.69876">
        <ele>615</ele>
        <time>2022-09-24T14:05:16.213Z</time>
      </trkpt>
      <trkpt lat="45.61164" lon="5.6986">
        <ele>616</ele>
        <time>2022-09-24T14:05:21.185Z</time>
      </trkpt>
      <trkpt lat="45.61166" lon="5.69846">
        <ele>617</ele>
        <time>2022-09-24T14:05:25.172Z</time>
      </trkpt>
      <trkpt lat="45.61167" lon="5.69833">
        <ele>618</ele>
        <time>2022-09-24T14:05:29.196Z</time>
      </trkpt>
      <trkpt lat="45.61172" lon="5.69821">
        <ele>618</ele>
        <time>2022-09-24T14:05:33.145Z</time>
      </trkpt>
      <trkpt lat="45.61182" lon="5.69819">
        <ele>619</ele>
        <time>2022-09-24T14:05:37.171Z</time>
      </trkpt>
      <trkpt lat="45.61187" lon="5.69832">
        <ele>620</ele>
        <time>2022-09-24T14:05:43.188Z</time>
      </trkpt>
      <trkpt lat="45.6119" lon="5.69847">
        <ele>621</ele>
        <time>2022-09-24T14:05:48.199Z</time>
      </trkpt>
      <trkpt lat="45.61193" lon="5.69861">
        <ele>621</ele>
        <time>2022-09-24T14:05:53.193Z</time>
      </trkpt>
      <trkpt lat="45.61196" lon="5.69876">
        <ele>622</ele>
        <time>2022-09-24T14:05:58.162Z</time>
      </trkpt>
      <trkpt lat="45.61201" lon="5.69889">
        <ele>622</ele>
        <time>2022-09-24T14:06:03.182Z</time>
      </trkpt>
      <trkpt lat="45.61205" lon="5.69903">
        <ele>623</ele>
        <time>2022-09-24T14:06:08.155Z</time>
      </trkpt>
      <trkpt lat="45.61211" lon="5.69916">
        <ele>623</ele>
        <time>2022-09-24T14:06:13.169Z</time>
      </trkpt>
      <trkpt lat="45.61216" lon="5.69929">
        <ele>624</ele>
        <time>2022-09-24T14:06:18.176Z</time>
      </trkpt>
      <trkpt lat="45.61221" lon="5.69942">
        <ele>624</ele>
        <time>2022-09-24T14:06:23.135Z</time>
      </trkpt>
      <trkpt lat="45.61226" lon="5.69955">
        <ele>625</ele>
        <time>2022-09-24T14:06:27.229Z</time>
      </trkpt>
      <trkpt lat="45.61231" lon="5.69968">
        <ele>625</ele>
        <time>2022-09-24T14:06:32.121Z</time>
      </trkpt>
      <trkpt lat="45.61236" lon="5.69981">
        <ele>626</ele>
        <time>2022-09-24T14:06:37.208Z</time>
      </trkpt>
      <trkpt lat="45.6124" lon="5.69993">
        <ele>627</ele>
        <time>2022-09-24T14:06:42.167Z</time>
      </trkpt>
      <trkpt lat="45.61245" lon="5.70006">
        <ele>627</ele>
        <time>2022-09-24T14:06:47.167Z</time>
      </trkpt>
      <trkpt lat="45.61251" lon="5.70018">
        <ele>628</ele>
        <time>2022-09-24T14:06:52.190Z</time>
      </trkpt>
      <trkpt lat="45.6126" lon="5.70025">
        <ele>629</ele>
        <time>2022-09-24T14:06:57.177Z</time>
      </trkpt>
      <trkpt lat="45.61268" lon="5.70015">
        <ele>629</ele>
        <time>2022-09-24T14:07:02.151Z</time>
      </trkpt>
      <trkpt lat="45.61269" lon="5.70002">
        <ele>630</ele>
        <time>2022-09-24T14:07:06.139Z</time>
      </trkpt>
      <trkpt lat="45.61269" lon="5.69989">
        <ele>630</ele>
        <time>2022-09-24T14:07:10.157Z</time>
      </trkpt>
      <trkpt lat="45.61267" lon="5.69975">
        <ele>631</ele>
        <time>2022-09-24T14:07:14.140Z</time>
      </trkpt>
      <trkpt lat="45.61264" lon="5.69962">
        <ele>632</ele>
        <time>2022-09-24T14:07:18.157Z</time>
      </trkpt>
      <trkpt lat="45.61262" lon="5.69948">
        <ele>632</ele>
        <time>2022-09-24T14:07:22.172Z</time>
      </trkpt>
      <trkpt lat="45.6126" lon="5.69934">
        <ele>633</ele>
        <time>2022-09-24T14:07:26.164Z</time>
      </trkpt>
      <trkpt lat="45.61259" lon="5.69919">
        <ele>634</ele>
        <time>2022-09-24T14:07:30.170Z</time>
      </trkpt>
      <trkpt lat="45.61257" lon="5.69904">
        <ele>634</ele>
        <time>2022-09-24T14:07:34.156Z</time>
      </trkpt>
      <trkpt lat="45.61256" lon="5.6989">
        <ele>635</ele>
        <time>2022-09-24T14:07:38.190Z</time>
      </trkpt>
      <trkpt lat="45.61257" lon="5.69877">
        <ele>635</ele>
        <time>2022-09-24T14:07:42.174Z</time>
      </trkpt>
      <trkpt lat="45.61259" lon="5.69864">
        <ele>636</ele>
        <time>2022-09-24T14:07:46.170Z</time>
      </trkpt>
      <trkpt lat="45.61264" lon="5.69851">
        <ele>637</ele>
        <time>2022-09-24T14:07:51.187Z</time>
      </trkpt>
      <trkpt lat="45.61272" lon="5.6984">
        <ele>638</ele>
        <time>2022-09-24T14:07:56.182Z</time>
      </trkpt>
      <trkpt lat="45.61281" lon="5.69832">
        <ele>639</ele>
        <time>2022-09-24T14:08:01.156Z</time>
      </trkpt>
      <trkpt lat="45.61289" lon="5.69826">
        <ele>639</ele>
        <time>2022-09-24T14:08:05.146Z</time>
      </trkpt>
      <trkpt lat="45.613" lon="5.69821">
        <ele>640</ele>
        <time>2022-09-24T14:08:10.164Z</time>
      </trkpt>
      <trkpt lat="45.6131" lon="5.69815">
        <ele>641</ele>
        <time>2022-09-24T14:08:15.194Z</time>
      </trkpt>
      <trkpt lat="45.6132" lon="5.69808">
        <ele>642</ele>
        <time>2022-09-24T14:08:20.198Z</time>
      </trkpt>
      <trkpt lat="45.61329" lon="5.69801">
        <ele>643</ele>
        <time>2022-09-24T14:08:25.165Z</time>
      </trkpt>
      <trkpt lat="45.6134" lon="5.69797">
        <ele>644</ele>
        <time>2022-09-24T14:08:30.147Z</time>
      </trkpt>
      <trkpt lat="45.6135" lon="5.69796">
        <ele>645</ele>
        <time>2022-09-24T14:08:35.156Z</time>
      </trkpt>
      <trkpt lat="45.61361" lon="5.69802">
        <ele>646</ele>
        <time>2022-09-24T14:08:40.186Z</time>
      </trkpt>
      <trkpt lat="45.6137" lon="5.69807">
        <ele>647</ele>
        <time>2022-09-24T14:08:45.200Z</time>
      </trkpt>
      <trkpt lat="45.61378" lon="5.69817">
        <ele>648</ele>
        <time>2022-09-24T14:08:51.167Z</time>
      </trkpt>
      <trkpt lat="45.61384" lon="5.6983">
        <ele>649</ele>
        <time>2022-09-24T14:08:56.191Z</time>
      </trkpt>
      <trkpt lat="45.61388" lon="5.69842">
        <ele>650</ele>
        <time>2022-09-24T14:09:00.164Z</time>
      </trkpt>
      <trkpt lat="45.61391" lon="5.69858">
        <ele>651</ele>
        <time>2022-09-24T14:09:04.201Z</time>
      </trkpt>
      <trkpt lat="45.6139" lon="5.69873">
        <ele>652</ele>
        <time>2022-09-24T14:09:08.226Z</time>
      </trkpt>
      <trkpt lat="45.61387" lon="5.69888">
        <ele>652</ele>
        <time>2022-09-24T14:09:12.172Z</time>
      </trkpt>
      <trkpt lat="45.61384" lon="5.69902">
        <ele>653</ele>
        <time>2022-09-24T14:09:16.144Z</time>
      </trkpt>
      <trkpt lat="45.61382" lon="5.69918">
        <ele>654</ele>
        <time>2022-09-24T14:09:20.197Z</time>
      </trkpt>
      <trkpt lat="45.6138" lon="5.69932">
        <ele>655</ele>
        <time>2022-09-24T14:09:24.171Z</time>
      </trkpt>
      <trkpt lat="45.61379" lon="5.69946">
        <ele>655</ele>
        <time>2022-09-24T14:09:28.172Z</time>
      </trkpt>
      <trkpt lat="45.61378" lon="5.6996">
        <ele>656</ele>
        <time>2022-09-24T14:09:32.162Z</time>
      </trkpt>
      <trkpt lat="45.61377" lon="5.69974">
        <ele>656</ele>
        <time>2022-09-24T14:09:36.107Z</time>
      </trkpt>
      <trkpt lat="45.61378" lon="5.69988">
        <ele>656</ele>
        <time>2022-09-24T14:09:40.171Z</time>
      </trkpt>
      <trkpt lat="45.61381" lon="5.70002">
        <ele>657</ele>
        <time>2022-09-24T14:09:44.150Z</time>
      </trkpt>
      <trkpt lat="45.61385" lon="5.70015">
        <ele>657</ele>
        <time>2022-09-24T14:09:48.185Z</time>
      </trkpt>
      <trkpt lat="45.61389" lon="5.70027">
        <ele>658</ele>
        <time>2022-09-24T14:09:52.139Z</time>
      </trkpt>
      <trkpt lat="45.61394" lon="5.70041">
        <ele>659</ele>
        <time>2022-09-24T14:09:57.140Z</time>
      </trkpt>
      <trkpt lat="45.61399" lon="5.70053">
        <ele>659</ele>
        <time>2022-09-24T14:10:01.139Z</time>
      </trkpt>
      <trkpt lat="45.61405" lon="5.70067">
        <ele>660</ele>
        <time>2022-09-24T14:10:06.149Z</time>
      </trkpt>
      <trkpt lat="45.61411" lon="5.70076">
        <ele>660</ele>
        <time>2022-09-24T14:10:10.145Z</time>
      </trkpt>
      <trkpt lat="45.61419" lon="5.70085">
        <ele>661</ele>
        <time>2022-09-24T14:10:14.151Z</time>
      </trkpt>
      <trkpt lat="45.61427" lon="5.7009">
        <ele>662</ele>
        <time>2022-09-24T14:10:18.171Z</time>
      </trkpt>
      <trkpt lat="45.61437" lon="5.7009">
        <ele>662</ele>
        <time>2022-09-24T14:10:22.107Z</time>
      </trkpt>
      <trkpt lat="45.61446" lon="5.70088">
        <ele>663</ele>
        <time>2022-09-24T14:10:26.150Z</time>
      </trkpt>
      <trkpt lat="45.61456" lon="5.70088">
        <ele>664</ele>
        <time>2022-09-24T14:10:30.159Z</time>
      </trkpt>
      <trkpt lat="45.61465" lon="5.70087">
        <ele>664</ele>
        <time>2022-09-24T14:10:34.164Z</time>
      </trkpt>
      <trkpt lat="45.61474" lon="5.70086">
        <ele>665</ele>
        <time>2022-09-24T14:10:38.226Z</time>
      </trkpt>
      <trkpt lat="45.61484" lon="5.70085">
        <ele>666</ele>
        <time>2022-09-24T14:10:43.155Z</time>
      </trkpt>
      <trkpt lat="45.61494" lon="5.70084">
        <ele>667</ele>
        <time>2022-09-24T14:10:48.180Z</time>
      </trkpt>
      <trkpt lat="45.61505" lon="5.70083">
        <ele>669</ele>
        <time>2022-09-24T14:10:53.157Z</time>
      </trkpt>
      <trkpt lat="45.61515" lon="5.70082">
        <ele>670</ele>
        <time>2022-09-24T14:10:58.169Z</time>
      </trkpt>
      <trkpt lat="45.61525" lon="5.70082">
        <ele>672</ele>
        <time>2022-09-24T14:11:03.160Z</time>
      </trkpt>
      <trkpt lat="45.61536" lon="5.70084">
        <ele>674</ele>
        <time>2022-09-24T14:11:08.122Z</time>
      </trkpt>
      <trkpt lat="45.61547" lon="5.70088">
        <ele>676</ele>
        <time>2022-09-24T14:11:13.162Z</time>
      </trkpt>
      <trkpt lat="45.61557" lon="5.70091">
        <ele>678</ele>
        <time>2022-09-24T14:11:18.160Z</time>
      </trkpt>
      <trkpt lat="45.61566" lon="5.70093">
        <ele>680</ele>
        <time>2022-09-24T14:11:23.167Z</time>
      </trkpt>
      <trkpt lat="45.61576" lon="5.70095">
        <ele>682</ele>
        <time>2022-09-24T14:11:28.177Z</time>
      </trkpt>
      <trkpt lat="45.61587" lon="5.70099">
        <ele>683</ele>
        <time>2022-09-24T14:11:33.161Z</time>
      </trkpt>
      <trkpt lat="45.61596" lon="5.701">
        <ele>685</ele>
        <time>2022-09-24T14:11:37.155Z</time>
      </trkpt>
      <trkpt lat="45.61605" lon="5.70101">
        <ele>686</ele>
        <time>2022-09-24T14:11:41.169Z</time>
      </trkpt>
      <trkpt lat="45.61615" lon="5.70099">
        <ele>687</ele>
        <time>2022-09-24T14:11:45.157Z</time>
      </trkpt>
      <trkpt lat="45.61624" lon="5.70096">
        <ele>689</ele>
        <time>2022-09-24T14:11:49.170Z</time>
      </trkpt>
      <trkpt lat="45.61634" lon="5.70093">
        <ele>690</ele>
        <time>2022-09-24T14:11:53.177Z</time>
      </trkpt>
      <trkpt lat="45.61645" lon="5.70088">
        <ele>691</ele>
        <time>2022-09-24T14:11:57.155Z</time>
      </trkpt>
      <trkpt lat="45.61656" lon="5.70082">
        <ele>691</ele>
        <time>2022-09-24T14:12:01.177Z</time>
      </trkpt>
      <trkpt lat="45.61666" lon="5.70076">
        <ele>692</ele>
        <time>2022-09-24T14:12:05.174Z</time>
      </trkpt>
      <trkpt lat="45.61676" lon="5.70066">
        <ele>693</ele>
        <time>2022-09-24T14:12:09.129Z</time>
      </trkpt>
      <trkpt lat="45.61687" lon="5.70058">
        <ele>693</ele>
        <time>2022-09-24T14:12:13.150Z</time>
      </trkpt>
      <trkpt lat="45.61697" lon="5.70051">
        <ele>694</ele>
        <time>2022-09-24T14:12:17.143Z</time>
      </trkpt>
      <trkpt lat="45.61707" lon="5.70044">
        <ele>694</ele>
        <time>2022-09-24T14:12:21.150Z</time>
      </trkpt>
      <trkpt lat="45.61717" lon="5.70037">
        <ele>694</ele>
        <time>2022-09-24T14:12:25.150Z</time>
      </trkpt>
      <trkpt lat="45.61727" lon="5.7003">
        <ele>694</ele>
        <time>2022-09-24T14:12:29.157Z</time>
      </trkpt>
      <trkpt lat="45.61737" lon="5.70023">
        <ele>695</ele>
        <time>2022-09-24T14:12:33.119Z</time>
      </trkpt>
      <trkpt lat="45.61747" lon="5.70017">
        <ele>695</ele>
        <time>2022-09-24T14:12:37.151Z</time>
      </trkpt>
      <trkpt lat="45.61755" lon="5.70009">
        <ele>695</ele>
        <time>2022-09-24T14:12:41.142Z</time>
      </trkpt>
      <trkpt lat="45.61764" lon="5.70003">
        <ele>696</ele>
        <time>2022-09-24T14:12:45.165Z</time>
      </trkpt>
      <trkpt lat="45.61773" lon="5.69996">
        <ele>696</ele>
        <time>2022-09-24T14:12:49.142Z</time>
      </trkpt>
      <trkpt lat="45.61782" lon="5.6999">
        <ele>697</ele>
        <time>2022-09-24T14:12:53.135Z</time>
      </trkpt>
      <trkpt lat="45.61791" lon="5.69983">
        <ele>697</ele>
        <time>2022-09-24T14:12:57.143Z</time>
      </trkpt>
      <trkpt lat="45.61801" lon="5.69976">
        <ele>698</ele>
        <time>2022-09-24T14:13:01.146Z</time>
      </trkpt>
      <trkpt lat="45.6181" lon="5.69968">
        <ele>699</ele>
        <time>2022-09-24T14:13:05.172Z</time>
      </trkpt>
      <trkpt lat="45.61818" lon="5.69961">
        <ele>700</ele>
        <time>2022-09-24T14:13:09.142Z</time>
      </trkpt>
      <trkpt lat="45.61828" lon="5.69954">
        <ele>701</ele>
        <time>2022-09-24T14:13:13.141Z</time>
      </trkpt>
      <trkpt lat="45.61838" lon="5.69946">
        <ele>702</ele>
        <time>2022-09-24T14:13:17.147Z</time>
      </trkpt>
      <trkpt lat="45.61848" lon="5.69939">
        <ele>703</ele>
        <time>2022-09-24T14:13:21.143Z</time>
      </trkpt>
      <trkpt lat="45.61858" lon="5.69932">
        <ele>704</ele>
        <time>2022-09-24T14:13:25.169Z</time>
      </trkpt>
      <trkpt lat="45.61869" lon="5.69926">
        <ele>704</ele>
        <time>2022-09-24T14:13:29.155Z</time>
      </trkpt>
      <trkpt lat="45.6188" lon="5.69921">
        <ele>705</ele>
        <time>2022-09-24T14:13:33.150Z</time>
      </trkpt>
      <trkpt lat="45.6189" lon="5.69914">
        <ele>706</ele>
        <time>2022-09-24T14:13:37.154Z</time>
      </trkpt>
      <trkpt lat="45.619" lon="5.69909">
        <ele>706</ele>
        <time>2022-09-24T14:13:41.140Z</time>
      </trkpt>
      <trkpt lat="45.6191" lon="5.69903">
        <ele>707</ele>
        <time>2022-09-24T14:13:45.146Z</time>
      </trkpt>
      <trkpt lat="45.6192" lon="5.69898">
        <ele>707</ele>
        <time>2022-09-24T14:13:49.149Z</time>
      </trkpt>
      <trkpt lat="45.6193" lon="5.69893">
        <ele>708</ele>
        <time>2022-09-24T14:13:53.158Z</time>
      </trkpt>
      <trkpt lat="45.61938" lon="5.69888">
        <ele>708</ele>
        <time>2022-09-24T14:13:57.142Z</time>
      </trkpt>
      <trkpt lat="45.61947" lon="5.69882">
        <ele>709</ele>
        <time>2022-09-24T14:14:01.161Z</time>
      </trkpt>
      <trkpt lat="45.61957" lon="5.69876">
        <ele>709</ele>
        <time>2022-09-24T14:14:06.157Z</time>
      </trkpt>
      <trkpt lat="45.61965" lon="5.6987">
        <ele>710</ele>
        <time>2022-09-24T14:14:10.139Z</time>
      </trkpt>
      <trkpt lat="45.61975" lon="5.69865">
        <ele>711</ele>
        <time>2022-09-24T14:14:15.118Z</time>
      </trkpt>
      <trkpt lat="45.61984" lon="5.6986">
        <ele>711</ele>
        <time>2022-09-24T14:14:19.165Z</time>
      </trkpt>
      <trkpt lat="45.61992" lon="5.69855">
        <ele>712</ele>
        <time>2022-09-24T14:14:23.145Z</time>
      </trkpt>
      <trkpt lat="45.62002" lon="5.69849">
        <ele>713</ele>
        <time>2022-09-24T14:14:28.133Z</time>
      </trkpt>
      <trkpt lat="45.62013" lon="5.69843">
        <ele>714</ele>
        <time>2022-09-24T14:14:33.158Z</time>
      </trkpt>
      <trkpt lat="45.62021" lon="5.6985">
        <ele>715</ele>
        <time>2022-09-24T14:14:38.158Z</time>
      </trkpt>
      <trkpt lat="45.62027" lon="5.69862">
        <ele>716</ele>
        <time>2022-09-24T14:14:44.129Z</time>
      </trkpt>
      <trkpt lat="45.62032" lon="5.69873">
        <ele>717</ele>
        <time>2022-09-24T14:14:49.147Z</time>
      </trkpt>
      <trkpt lat="45.62038" lon="5.69885">
        <ele>718</ele>
        <time>2022-09-24T14:14:54.128Z</time>
      </trkpt>
      <trkpt lat="45.62041" lon="5.69899">
        <ele>719</ele>
        <time>2022-09-24T14:14:59.157Z</time>
      </trkpt>
      <trkpt lat="45.6204" lon="5.69914">
        <ele>720</ele>
        <time>2022-09-24T14:15:04.144Z</time>
      </trkpt>
      <trkpt lat="45.62034" lon="5.69927">
        <ele>721</ele>
        <time>2022-09-24T14:15:09.147Z</time>
      </trkpt>
      <trkpt lat="45.62028" lon="5.69938">
        <ele>722</ele>
        <time>2022-09-24T14:15:13.144Z</time>
      </trkpt>
      <trkpt lat="45.62022" lon="5.69951">
        <ele>723</ele>
        <time>2022-09-24T14:15:18.170Z</time>
      </trkpt>
      <trkpt lat="45.62019" lon="5.69963">
        <ele>724</ele>
        <time>2022-09-24T14:15:22.167Z</time>
      </trkpt>
      <trkpt lat="45.62018" lon="5.69977">
        <ele>725</ele>
        <time>2022-09-24T14:15:27.132Z</time>
      </trkpt>
      <trkpt lat="45.62017" lon="5.69991">
        <ele>726</ele>
        <time>2022-09-24T14:15:32.150Z</time>
      </trkpt>
      <trkpt lat="45.62017" lon="5.70006">
        <ele>727</ele>
        <time>2022-09-24T14:15:37.146Z</time>
      </trkpt>
      <trkpt lat="45.62016" lon="5.7002">
        <ele>728</ele>
        <time>2022-09-24T14:15:42.161Z</time>
      </trkpt>
      <trkpt lat="45.62014" lon="5.70034">
        <ele>729</ele>
        <time>2022-09-24T14:15:47.115Z</time>
      </trkpt>
      <trkpt lat="45.62012" lon="5.70048">
        <ele>729</ele>
        <time>2022-09-24T14:15:52.138Z</time>
      </trkpt>
      <trkpt lat="45.62007" lon="5.70061">
        <ele>730</ele>
        <time>2022-09-24T14:15:57.154Z</time>
      </trkpt>
      <trkpt lat="45.62002" lon="5.70071">
        <ele>731</ele>
        <time>2022-09-24T14:16:01.134Z</time>
      </trkpt>
      <trkpt lat="45.61996" lon="5.70082">
        <ele>732</ele>
        <time>2022-09-24T14:16:05.152Z</time>
      </trkpt>
      <trkpt lat="45.61989" lon="5.70093">
        <ele>733</ele>
        <time>2022-09-24T14:16:09.151Z</time>
      </trkpt>
      <trkpt lat="45.61984" lon="5.70105">
        <ele>733</ele>
        <time>2022-09-24T14:16:13.147Z</time>
      </trkpt>
      <trkpt lat="45.61981" lon="5.70118">
        <ele>734</ele>
        <time>2022-09-24T14:16:18.133Z</time>
      </trkpt>
      <trkpt lat="45.6198" lon="5.70133">
        <ele>735</ele>
        <time>2022-09-24T14:16:23.144Z</time>
      </trkpt>
      <trkpt lat="45.61979" lon="5.70147">
        <ele>736</ele>
        <time>2022-09-24T14:16:28.137Z</time>
      </trkpt>
      <trkpt lat="45.61977" lon="5.70161">
        <ele>737</ele>
        <time>2022-09-24T14:16:33.123Z</time>
      </trkpt>
      <trkpt lat="45.61974" lon="5.70174">
        <ele>738</ele>
        <time>2022-09-24T14:16:38.134Z</time>
      </trkpt>
      <trkpt lat="45.6197" lon="5.70188">
        <ele>739</ele>
        <time>2022-09-24T14:16:43.153Z</time>
      </trkpt>
      <trkpt lat="45.61964" lon="5.702">
        <ele>740</ele>
        <time>2022-09-24T14:16:48.120Z</time>
      </trkpt>
      <trkpt lat="45.61957" lon="5.70211">
        <ele>741</ele>
        <time>2022-09-24T14:16:53.169Z</time>
      </trkpt>
      <trkpt lat="45.61949" lon="5.70224">
        <ele>742</ele>
        <time>2022-09-24T14:16:58.160Z</time>
      </trkpt>
      <trkpt lat="45.61942" lon="5.70232">
        <ele>743</ele>
        <time>2022-09-24T14:17:02.168Z</time>
      </trkpt>
      <trkpt lat="45.61935" lon="5.70242">
        <ele>744</ele>
        <time>2022-09-24T14:17:07.131Z</time>
      </trkpt>
      <trkpt lat="45.61928" lon="5.70251">
        <ele>745</ele>
        <time>2022-09-24T14:17:12.136Z</time>
      </trkpt>
      <trkpt lat="45.61921" lon="5.70262">
        <ele>746</ele>
        <time>2022-09-24T14:17:17.136Z</time>
      </trkpt>
      <trkpt lat="45.61912" lon="5.7027">
        <ele>747</ele>
        <time>2022-09-24T14:17:22.181Z</time>
      </trkpt>
      <trkpt lat="45.61904" lon="5.70277">
        <ele>748</ele>
        <time>2022-09-24T14:17:26.145Z</time>
      </trkpt>
      <trkpt lat="45.61896" lon="5.70283">
        <ele>749</ele>
        <time>2022-09-24T14:17:30.162Z</time>
      </trkpt>
      <trkpt lat="45.61886" lon="5.70292">
        <ele>749</ele>
        <time>2022-09-24T14:17:35.139Z</time>
      </trkpt>
      <trkpt lat="45.61878" lon="5.703">
        <ele>750</ele>
        <time>2022-09-24T14:17:39.148Z</time>
      </trkpt>
      <trkpt lat="45.6187" lon="5.70309">
        <ele>751</ele>
        <time>2022-09-24T14:17:43.171Z</time>
      </trkpt>
      <trkpt lat="45.61862" lon="5.70319">
        <ele>752</ele>
        <time>2022-09-24T14:17:48.145Z</time>
      </trkpt>
      <trkpt lat="45.61855" lon="5.70327">
        <ele>752</ele>
        <time>2022-09-24T14:17:52.159Z</time>
      </trkpt>
      <trkpt lat="45.61848" lon="5.70337">
        <ele>753</ele>
        <time>2022-09-24T14:17:56.168Z</time>
      </trkpt>
      <trkpt lat="45.61842" lon="5.70347">
        <ele>754</ele>
        <time>2022-09-24T14:18:00.157Z</time>
      </trkpt>
      <trkpt lat="45.61836" lon="5.70356">
        <ele>754</ele>
        <time>2022-09-24T14:18:04.155Z</time>
      </trkpt>
      <trkpt lat="45.61829" lon="5.70366">
        <ele>755</ele>
        <time>2022-09-24T14:18:08.172Z</time>
      </trkpt>
      <trkpt lat="45.61823" lon="5.70375">
        <ele>756</ele>
        <time>2022-09-24T14:18:12.187Z</time>
      </trkpt>
      <trkpt lat="45.61815" lon="5.70383">
        <ele>756</ele>
        <time>2022-09-24T14:18:16.166Z</time>
      </trkpt>
      <trkpt lat="45.61807" lon="5.70391">
        <ele>757</ele>
        <time>2022-09-24T14:18:20.158Z</time>
      </trkpt>
      <trkpt lat="45.61798" lon="5.704">
        <ele>757</ele>
        <time>2022-09-24T14:18:24.139Z</time>
      </trkpt>
      <trkpt lat="45.61789" lon="5.70408">
        <ele>757</ele>
        <time>2022-09-24T14:18:28.165Z</time>
      </trkpt>
      <trkpt lat="45.61781" lon="5.70419">
        <ele>758</ele>
        <time>2022-09-24T14:18:32.179Z</time>
      </trkpt>
      <trkpt lat="45.61774" lon="5.7043">
        <ele>758</ele>
        <time>2022-09-24T14:18:36.161Z</time>
      </trkpt>
      <trkpt lat="45.61765" lon="5.7044">
        <ele>759</ele>
        <time>2022-09-24T14:18:40.180Z</time>
      </trkpt>
      <trkpt lat="45.61756" lon="5.7045">
        <ele>760</ele>
        <time>2022-09-24T14:18:44.114Z</time>
      </trkpt>
      <trkpt lat="45.61748" lon="5.70459">
        <ele>760</ele>
        <time>2022-09-24T14:18:48.153Z</time>
      </trkpt>
      <trkpt lat="45.61741" lon="5.70469">
        <ele>761</ele>
        <time>2022-09-24T14:18:52.174Z</time>
      </trkpt>
      <trkpt lat="45.61734" lon="5.70479">
        <ele>761</ele>
        <time>2022-09-24T14:18:56.176Z</time>
      </trkpt>
      <trkpt lat="45.61728" lon="5.7049">
        <ele>762</ele>
        <time>2022-09-24T14:19:00.170Z</time>
      </trkpt>
      <trkpt lat="45.61721" lon="5.705">
        <ele>763</ele>
        <time>2022-09-24T14:19:04.181Z</time>
      </trkpt>
      <trkpt lat="45.61715" lon="5.70511">
        <ele>764</ele>
        <time>2022-09-24T14:19:08.186Z</time>
      </trkpt>
      <trkpt lat="45.61708" lon="5.70521">
        <ele>764</ele>
        <time>2022-09-24T14:19:12.199Z</time>
      </trkpt>
      <trkpt lat="45.61701" lon="5.70532">
        <ele>765</ele>
        <time>2022-09-24T14:19:16.167Z</time>
      </trkpt>
      <trkpt lat="45.61693" lon="5.70542">
        <ele>766</ele>
        <time>2022-09-24T14:19:19.125Z</time>
      </trkpt>
      <trkpt lat="45.61687" lon="5.70553">
        <ele>766</ele>
        <time>2022-09-24T14:19:22.149Z</time>
      </trkpt>
      <trkpt lat="45.61682" lon="5.70569">
        <ele>767</ele>
        <time>2022-09-24T14:19:26.160Z</time>
      </trkpt>
      <trkpt lat="45.61676" lon="5.70583">
        <ele>768</ele>
        <time>2022-09-24T14:19:30.158Z</time>
      </trkpt>
      <trkpt lat="45.61671" lon="5.70596">
        <ele>769</ele>
        <time>2022-09-24T14:19:34.182Z</time>
      </trkpt>
      <trkpt lat="45.61665" lon="5.7061">
        <ele>769</ele>
        <time>2022-09-24T14:19:38.208Z</time>
      </trkpt>
      <trkpt lat="45.6166" lon="5.70622">
        <ele>770</ele>
        <time>2022-09-24T14:19:41.176Z</time>
      </trkpt>
      <trkpt lat="45.61654" lon="5.70635">
        <ele>771</ele>
        <time>2022-09-24T14:19:45.190Z</time>
      </trkpt>
      <trkpt lat="45.61649" lon="5.70647">
        <ele>772</ele>
        <time>2022-09-24T14:19:49.153Z</time>
      </trkpt>
      <trkpt lat="45.61643" lon="5.70658">
        <ele>772</ele>
        <time>2022-09-24T14:19:53.183Z</time>
      </trkpt>
      <trkpt lat="45.61637" lon="5.70672">
        <ele>773</ele>
        <time>2022-09-24T14:19:57.172Z</time>
      </trkpt>
      <trkpt lat="45.61633" lon="5.70684">
        <ele>774</ele>
        <time>2022-09-24T14:20:00.146Z</time>
      </trkpt>
      <trkpt lat="45.61627" lon="5.70695">
        <ele>775</ele>
        <time>2022-09-24T14:20:03.179Z</time>
      </trkpt>
      <trkpt lat="45.61619" lon="5.7071">
        <ele>775</ele>
        <time>2022-09-24T14:20:07.133Z</time>
      </trkpt>
      <trkpt lat="45.61611" lon="5.70727">
        <ele>776</ele>
        <time>2022-09-24T14:20:11.165Z</time>
      </trkpt>
      <trkpt lat="45.61603" lon="5.70742">
        <ele>776</ele>
        <time>2022-09-24T14:20:15.170Z</time>
      </trkpt>
      <trkpt lat="45.61596" lon="5.70757">
        <ele>777</ele>
        <time>2022-09-24T14:20:19.192Z</time>
      </trkpt>
      <trkpt lat="45.61588" lon="5.70771">
        <ele>778</ele>
        <time>2022-09-24T14:20:23.184Z</time>
      </trkpt>
      <trkpt lat="45.61581" lon="5.70785">
        <ele>779</ele>
        <time>2022-09-24T14:20:27.115Z</time>
      </trkpt>
      <trkpt lat="45.61574" lon="5.708">
        <ele>779</ele>
        <time>2022-09-24T14:20:31.188Z</time>
      </trkpt>
      <trkpt lat="45.61568" lon="5.70814">
        <ele>780</ele>
        <time>2022-09-24T14:20:35.165Z</time>
      </trkpt>
      <trkpt lat="45.61561" lon="5.70827">
        <ele>781</ele>
        <time>2022-09-24T14:20:39.181Z</time>
      </trkpt>
      <trkpt lat="45.61554" lon="5.70842">
        <ele>781</ele>
        <time>2022-09-24T14:20:43.174Z</time>
      </trkpt>
      <trkpt lat="45.61546" lon="5.70856">
        <ele>781</ele>
        <time>2022-09-24T14:20:47.139Z</time>
      </trkpt>
      <trkpt lat="45.61536" lon="5.7087">
        <ele>782</ele>
        <time>2022-09-24T14:20:51.163Z</time>
      </trkpt>
      <trkpt lat="45.61526" lon="5.70885">
        <ele>782</ele>
        <time>2022-09-24T14:20:55.183Z</time>
      </trkpt>
      <trkpt lat="45.61515" lon="5.70899">
        <ele>782</ele>
        <time>2022-09-24T14:20:59.163Z</time>
      </trkpt>
      <trkpt lat="45.61505" lon="5.70913">
        <ele>783</ele>
        <time>2022-09-24T14:21:03.191Z</time>
      </trkpt>
      <trkpt lat="45.61494" lon="5.7093">
        <ele>783</ele>
        <time>2022-09-24T14:21:08.179Z</time>
      </trkpt>
      <trkpt lat="45.61485" lon="5.70944">
        <ele>784</ele>
        <time>2022-09-24T14:21:12.160Z</time>
      </trkpt>
      <trkpt lat="45.61476" lon="5.70956">
        <ele>784</ele>
        <time>2022-09-24T14:21:16.163Z</time>
      </trkpt>
      <trkpt lat="45.61469" lon="5.70969">
        <ele>784</ele>
        <time>2022-09-24T14:21:20.185Z</time>
      </trkpt>
      <trkpt lat="45.61461" lon="5.70982">
        <ele>785</ele>
        <time>2022-09-24T14:21:24.180Z</time>
      </trkpt>
      <trkpt lat="45.61452" lon="5.70996">
        <ele>785</ele>
        <time>2022-09-24T14:21:28.161Z</time>
      </trkpt>
      <trkpt lat="45.61442" lon="5.71009">
        <ele>786</ele>
        <time>2022-09-24T14:21:32.143Z</time>
      </trkpt>
      <trkpt lat="45.61432" lon="5.71022">
        <ele>786</ele>
        <time>2022-09-24T14:21:36.192Z</time>
      </trkpt>
      <trkpt lat="45.61422" lon="5.71035">
        <ele>787</ele>
        <time>2022-09-24T14:21:40.198Z</time>
      </trkpt>
      <trkpt lat="45.61415" lon="5.71052">
        <ele>787</ele>
        <time>2022-09-24T14:21:44.168Z</time>
      </trkpt>
      <trkpt lat="45.61406" lon="5.71069">
        <ele>788</ele>
        <time>2022-09-24T14:21:48.157Z</time>
      </trkpt>
      <trkpt lat="45.61398" lon="5.71085">
        <ele>788</ele>
        <time>2022-09-24T14:21:52.178Z</time>
      </trkpt>
      <trkpt lat="45.61388" lon="5.71102">
        <ele>789</ele>
        <time>2022-09-24T14:21:57.185Z</time>
      </trkpt>
      <trkpt lat="45.6138" lon="5.71117">
        <ele>790</ele>
        <time>2022-09-24T14:22:01.172Z</time>
      </trkpt>
      <trkpt lat="45.61371" lon="5.71136">
        <ele>790</ele>
        <time>2022-09-24T14:22:05.170Z</time>
      </trkpt>
      <trkpt lat="45.61362" lon="5.71157">
        <ele>791</ele>
        <time>2022-09-24T14:22:09.152Z</time>
      </trkpt>
      <trkpt lat="45.61355" lon="5.71179">
        <ele>791</ele>
        <time>2022-09-24T14:22:13.179Z</time>
      </trkpt>
      <trkpt lat="45.61354" lon="5.71206">
        <ele>792</ele>
        <time>2022-09-24T14:22:17.179Z</time>
      </trkpt>
      <trkpt lat="45.61354" lon="5.71236">
        <ele>792</ele>
        <time>2022-09-24T14:22:21.190Z</time>
      </trkpt>
      <trkpt lat="45.61355" lon="5.71265">
        <ele>792</ele>
        <time>2022-09-24T14:22:25.143Z</time>
      </trkpt>
      <trkpt lat="45.61357" lon="5.71295">
        <ele>792</ele>
        <time>2022-09-24T14:22:29.171Z</time>
      </trkpt>
      <trkpt lat="45.61361" lon="5.71328">
        <ele>792</ele>
        <time>2022-09-24T14:22:33.186Z</time>
      </trkpt>
      <trkpt lat="45.61365" lon="5.71367">
        <ele>793</ele>
        <time>2022-09-24T14:22:38.185Z</time>
      </trkpt>
      <trkpt lat="45.61368" lon="5.71401">
        <ele>793</ele>
        <time>2022-09-24T14:22:43.162Z</time>
      </trkpt>
      <trkpt lat="45.61363" lon="5.71432">
        <ele>793</ele>
        <time>2022-09-24T14:22:48.181Z</time>
      </trkpt>
      <trkpt lat="45.61355" lon="5.7146">
        <ele>793</ele>
        <time>2022-09-24T14:22:53.165Z</time>
      </trkpt>
      <trkpt lat="45.61348" lon="5.71484">
        <ele>793</ele>
        <time>2022-09-24T14:22:57.190Z</time>
      </trkpt>
      <trkpt lat="45.61342" lon="5.71508">
        <ele>794</ele>
        <time>2022-09-24T14:23:01.173Z</time>
      </trkpt>
      <trkpt lat="45.61335" lon="5.71533">
        <ele>795</ele>
        <time>2022-09-24T14:23:05.205Z</time>
      </trkpt>
      <trkpt lat="45.61328" lon="5.71559">
        <ele>796</ele>
        <time>2022-09-24T14:23:09.183Z</time>
      </trkpt>
      <trkpt lat="45.61322" lon="5.71586">
        <ele>797</ele>
        <time>2022-09-24T14:23:13.192Z</time>
      </trkpt>
      <trkpt lat="45.6132" lon="5.71614">
        <ele>798</ele>
        <time>2022-09-24T14:23:17.183Z</time>
      </trkpt>
      <trkpt lat="45.61314" lon="5.71647">
        <ele>799</ele>
        <time>2022-09-24T14:23:22.197Z</time>
      </trkpt>
      <trkpt lat="45.61305" lon="5.71681">
        <ele>800</ele>
        <time>2022-09-24T14:23:26.184Z</time>
      </trkpt>
      <trkpt lat="45.61303" lon="5.71714">
        <ele>800</ele>
        <time>2022-09-24T14:23:29.180Z</time>
      </trkpt>
      <trkpt lat="45.61309" lon="5.71763">
        <ele>800</ele>
        <time>2022-09-24T14:23:33.179Z</time>
      </trkpt>
      <trkpt lat="45.61318" lon="5.7182">
        <ele>800</ele>
        <time>2022-09-24T14:23:38.189Z</time>
      </trkpt>
      <trkpt lat="45.61317" lon="5.71871">
        <ele>800</ele>
        <time>2022-09-24T14:23:43.170Z</time>
      </trkpt>
      <trkpt lat="45.61307" lon="5.71919">
        <ele>798</ele>
        <time>2022-09-24T14:23:49.183Z</time>
      </trkpt>
      <trkpt lat="45.61299" lon="5.71952">
        <ele>797</ele>
        <time>2022-09-24T14:23:54.195Z</time>
      </trkpt>
      <trkpt lat="45.61299" lon="5.71986">
        <ele>796</ele>
        <time>2022-09-24T14:23:59.207Z</time>
      </trkpt>
      <trkpt lat="45.61298" lon="5.72019">
        <ele>795</ele>
        <time>2022-09-24T14:24:04.148Z</time>
      </trkpt>
      <trkpt lat="45.61278" lon="5.72031">
        <ele>794</ele>
        <time>2022-09-24T14:24:09.182Z</time>
      </trkpt>
      <trkpt lat="45.61271" lon="5.72031">
        <ele>791</ele>
        <time>2022-09-24T14:24:25.218Z</time>
      </trkpt>
      <trkpt lat="45.61271" lon="5.72031">
        <ele>791</ele>
        <time>2022-09-24T14:24:49.118Z</time>
      </trkpt>
      <trkpt lat="45.61246" lon="5.7204">
        <ele>791</ele>
        <time>2022-09-24T14:24:50.144Z</time>
      </trkpt>
      <trkpt lat="45.61232" lon="5.72044">
        <ele>791</ele>
        <time>2022-09-24T14:24:53.158Z</time>
      </trkpt>
      <trkpt lat="45.61217" lon="5.72046">
        <ele>791</ele>
        <time>2022-09-24T14:24:56.166Z</time>
      </trkpt>
      <trkpt lat="45.61197" lon="5.72045">
        <ele>791</ele>
        <time>2022-09-24T14:25:00.153Z</time>
      </trkpt>
      <trkpt lat="45.61175" lon="5.72043">
        <ele>791</ele>
        <time>2022-09-24T14:25:04.173Z</time>
      </trkpt>
      <trkpt lat="45.61153" lon="5.72039">
        <ele>791</ele>
        <time>2022-09-24T14:25:08.170Z</time>
      </trkpt>
      <trkpt lat="45.61124" lon="5.72037">
        <ele>791</ele>
        <time>2022-09-24T14:25:13.168Z</time>
      </trkpt>
      <trkpt lat="45.61096" lon="5.7204">
        <ele>791</ele>
        <time>2022-09-24T14:25:18.173Z</time>
      </trkpt>
      <trkpt lat="45.61069" lon="5.72053">
        <ele>791</ele>
        <time>2022-09-24T14:25:23.151Z</time>
      </trkpt>
      <trkpt lat="45.61045" lon="5.72068">
        <ele>791</ele>
        <time>2022-09-24T14:25:28.179Z</time>
      </trkpt>
      <trkpt lat="45.61028" lon="5.72089">
        <ele>791</ele>
        <time>2022-09-24T14:25:34.147Z</time>
      </trkpt>
      <trkpt lat="45.61025" lon="5.7211">
        <ele>791</ele>
        <time>2022-09-24T14:25:39.137Z</time>
      </trkpt>
      <trkpt lat="45.61024" lon="5.72127">
        <ele>792</ele>
        <time>2022-09-24T14:25:43.174Z</time>
      </trkpt>
      <trkpt lat="45.61022" lon="5.72143">
        <ele>792</ele>
        <time>2022-09-24T14:25:47.123Z</time>
      </trkpt>
      <trkpt lat="45.61021" lon="5.7216">
        <ele>792</ele>
        <time>2022-09-24T14:25:51.154Z</time>
      </trkpt>
      <trkpt lat="45.61016" lon="5.72174">
        <ele>792</ele>
        <time>2022-09-24T14:25:55.169Z</time>
      </trkpt>
      <trkpt lat="45.61009" lon="5.72187">
        <ele>793</ele>
        <time>2022-09-24T14:25:59.160Z</time>
      </trkpt>
      <trkpt lat="45.60997" lon="5.72195">
        <ele>793</ele>
        <time>2022-09-24T14:26:03.150Z</time>
      </trkpt>
      <trkpt lat="45.60987" lon="5.72209">
        <ele>794</ele>
        <time>2022-09-24T14:26:07.148Z</time>
      </trkpt>
      <trkpt lat="45.60984" lon="5.72228">
        <ele>795</ele>
        <time>2022-09-24T14:26:11.151Z</time>
      </trkpt>
      <trkpt lat="45.60986" lon="5.72249">
        <ele>795</ele>
        <time>2022-09-24T14:26:15.129Z</time>
      </trkpt>
      <trkpt lat="45.60989" lon="5.72269">
        <ele>796</ele>
        <time>2022-09-24T14:26:19.159Z</time>
      </trkpt>
      <trkpt lat="45.60991" lon="5.7229">
        <ele>796</ele>
        <time>2022-09-24T14:26:23.168Z</time>
      </trkpt>
      <trkpt lat="45.60993" lon="5.72312">
        <ele>796</ele>
        <time>2022-09-24T14:26:27.175Z</time>
      </trkpt>
      <trkpt lat="45.6099" lon="5.72333">
        <ele>797</ele>
        <time>2022-09-24T14:26:31.180Z</time>
      </trkpt>
      <trkpt lat="45.60981" lon="5.72353">
        <ele>797</ele>
        <time>2022-09-24T14:26:35.140Z</time>
      </trkpt>
      <trkpt lat="45.60969" lon="5.7237">
        <ele>798</ele>
        <time>2022-09-24T14:26:39.130Z</time>
      </trkpt>
      <trkpt lat="45.60957" lon="5.72388">
        <ele>798</ele>
        <time>2022-09-24T14:26:43.137Z</time>
      </trkpt>
      <trkpt lat="45.60941" lon="5.7241">
        <ele>799</ele>
        <time>2022-09-24T14:26:48.124Z</time>
      </trkpt>
      <trkpt lat="45.60926" lon="5.72431">
        <ele>799</ele>
        <time>2022-09-24T14:26:53.127Z</time>
      </trkpt>
      <trkpt lat="45.60914" lon="5.72449">
        <ele>799</ele>
        <time>2022-09-24T14:26:57.147Z</time>
      </trkpt>
      <trkpt lat="45.60902" lon="5.72472">
        <ele>800</ele>
        <time>2022-09-24T14:27:02.132Z</time>
      </trkpt>
      <trkpt lat="45.60898" lon="5.72497">
        <ele>800</ele>
        <time>2022-09-24T14:27:06.135Z</time>
      </trkpt>
      <trkpt lat="45.60897" lon="5.72528">
        <ele>800</ele>
        <time>2022-09-24T14:27:10.177Z</time>
      </trkpt>
      <trkpt lat="45.60879" lon="5.72544">
        <ele>800</ele>
        <time>2022-09-24T14:27:14.141Z</time>
      </trkpt>
      <trkpt lat="45.60895" lon="5.72574">
        <ele>800</ele>
        <time>2022-09-24T14:27:23.173Z</time>
      </trkpt>
      <trkpt lat="45.60917" lon="5.72607">
        <ele>800</ele>
        <time>2022-09-24T14:27:27.166Z</time>
      </trkpt>
      <trkpt lat="45.60935" lon="5.72639">
        <ele>800</ele>
        <time>2022-09-24T14:27:30.107Z</time>
      </trkpt>
      <trkpt lat="45.60961" lon="5.72694">
        <ele>799</ele>
        <time>2022-09-24T14:27:34.119Z</time>
      </trkpt>
      <trkpt lat="45.60999" lon="5.72751">
        <ele>798</ele>
        <time>2022-09-24T14:27:39.171Z</time>
      </trkpt>
      <trkpt lat="45.6105" lon="5.72783">
        <ele>797</ele>
        <time>2022-09-24T14:27:44.138Z</time>
      </trkpt>
      <trkpt lat="45.61103" lon="5.72811">
        <ele>795</ele>
        <time>2022-09-24T14:27:49.163Z</time>
      </trkpt>
      <trkpt lat="45.6115" lon="5.72838">
        <ele>792</ele>
        <time>2022-09-24T14:27:56.140Z</time>
      </trkpt>
      <trkpt lat="45.61122" lon="5.72847">
        <ele>788</ele>
        <time>2022-09-24T14:28:04.151Z</time>
      </trkpt>
      <trkpt lat="45.61095" lon="5.72846">
        <ele>786</ele>
        <time>2022-09-24T14:28:07.126Z</time>
      </trkpt>
      <trkpt lat="45.61063" lon="5.7285">
        <ele>784</ele>
        <time>2022-09-24T14:28:11.152Z</time>
      </trkpt>
      <trkpt lat="45.61094" lon="5.72864">
        <ele>777</ele>
        <time>2022-09-24T14:28:22.117Z</time>
      </trkpt>
      <trkpt lat="45.61126" lon="5.72881">
        <ele>775</ele>
        <time>2022-09-24T14:28:26.140Z</time>
      </trkpt>
      <trkpt lat="45.61164" lon="5.72917">
        <ele>772</ele>
        <time>2022-09-24T14:28:31.127Z</time>
      </trkpt>
      <trkpt lat="45.61199" lon="5.72967">
        <ele>770</ele>
        <time>2022-09-24T14:28:36.147Z</time>
      </trkpt>
      <trkpt lat="45.61207" lon="5.73042">
        <ele>767</ele>
        <time>2022-09-24T14:28:41.123Z</time>
      </trkpt>
      <trkpt lat="45.61201" lon="5.73119">
        <ele>764</ele>
        <time>2022-09-24T14:28:46.142Z</time>
      </trkpt>
      <trkpt lat="45.6117" lon="5.73197">
        <ele>759</ele>
        <time>2022-09-24T14:28:51.128Z</time>
      </trkpt>
      <trkpt lat="45.61139" lon="5.73274">
        <ele>754</ele>
        <time>2022-09-24T14:28:56.148Z</time>
      </trkpt>
      <trkpt lat="45.61105" lon="5.7331">
        <ele>743</ele>
        <time>2022-09-24T14:29:05.135Z</time>
      </trkpt>
      <trkpt lat="45.61104" lon="5.73268">
        <ele>737</ele>
        <time>2022-09-24T14:29:10.125Z</time>
      </trkpt>
      <trkpt lat="45.61085" lon="5.7329">
        <ele>730</ele>
        <time>2022-09-24T14:29:15.134Z</time>
      </trkpt>
      <trkpt lat="45.61075" lon="5.73332">
        <ele>725</ele>
        <time>2022-09-24T14:29:19.167Z</time>
      </trkpt>
      <trkpt lat="45.61063" lon="5.73379">
        <ele>719</ele>
        <time>2022-09-24T14:29:24.132Z</time>
      </trkpt>
      <trkpt lat="45.61053" lon="5.73424">
        <ele>712</ele>
        <time>2022-09-24T14:29:30.136Z</time>
      </trkpt>
      <trkpt lat="45.61044" lon="5.7346">
        <ele>708</ele>
        <time>2022-09-24T14:29:35.153Z</time>
      </trkpt>
      <trkpt lat="45.61037" lon="5.73499">
        <ele>704</ele>
        <time>2022-09-24T14:29:40.148Z</time>
      </trkpt>
      <trkpt lat="45.61052" lon="5.7353">
        <ele>703</ele>
        <time>2022-09-24T14:29:44.154Z</time>
      </trkpt>
      <trkpt lat="45.61078" lon="5.73551">
        <ele>701</ele>
        <time>2022-09-24T14:29:48.152Z</time>
      </trkpt>
      <trkpt lat="45.6111" lon="5.73551">
        <ele>699</ele>
        <time>2022-09-24T14:29:52.168Z</time>
      </trkpt>
      <trkpt lat="45.6115" lon="5.73542">
        <ele>697</ele>
        <time>2022-09-24T14:29:57.139Z</time>
      </trkpt>
      <trkpt lat="45.61194" lon="5.73527">
        <ele>696</ele>
        <time>2022-09-24T14:30:02.139Z</time>
      </trkpt>
      <trkpt lat="45.61237" lon="5.73514">
        <ele>694</ele>
        <time>2022-09-24T14:30:07.131Z</time>
      </trkpt>
      <trkpt lat="45.6128" lon="5.73504">
        <ele>693</ele>
        <time>2022-09-24T14:30:12.126Z</time>
      </trkpt>
      <trkpt lat="45.61323" lon="5.73491">
        <ele>692</ele>
        <time>2022-09-24T14:30:17.189Z</time>
      </trkpt>
      <trkpt lat="45.61367" lon="5.7348">
        <ele>690</ele>
        <time>2022-09-24T14:30:22.192Z</time>
      </trkpt>
      <trkpt lat="45.61412" lon="5.73477">
        <ele>688</ele>
        <time>2022-09-24T14:30:27.157Z</time>
      </trkpt>
      <trkpt lat="45.6146" lon="5.73475">
        <ele>686</ele>
        <time>2022-09-24T14:30:32.120Z</time>
      </trkpt>
      <trkpt lat="45.61506" lon="5.73463">
        <ele>684</ele>
        <time>2022-09-24T14:30:37.191Z</time>
      </trkpt>
      <trkpt lat="45.61546" lon="5.73451">
        <ele>682</ele>
        <time>2022-09-24T14:30:43.202Z</time>
      </trkpt>
      <trkpt lat="45.61563" lon="5.73411">
        <ele>679</ele>
        <time>2022-09-24T14:30:49.203Z</time>
      </trkpt>
      <trkpt lat="45.61574" lon="5.73381">
        <ele>677</ele>
        <time>2022-09-24T14:30:53.177Z</time>
      </trkpt>
      <trkpt lat="45.61589" lon="5.7335">
        <ele>675</ele>
        <time>2022-09-24T14:30:58.202Z</time>
      </trkpt>
      <trkpt lat="45.61611" lon="5.73367">
        <ele>673</ele>
        <time>2022-09-24T14:31:04.124Z</time>
      </trkpt>
      <trkpt lat="45.61625" lon="5.73386">
        <ele>671</ele>
        <time>2022-09-24T14:31:11.185Z</time>
      </trkpt>
      <trkpt lat="45.61636" lon="5.73396">
        <ele>670</ele>
        <time>2022-09-24T14:31:16.167Z</time>
      </trkpt>
      <trkpt lat="45.61646" lon="5.73405">
        <ele>669</ele>
        <time>2022-09-24T14:31:20.167Z</time>
      </trkpt>
      <trkpt lat="45.61656" lon="5.73414">
        <ele>669</ele>
        <time>2022-09-24T14:31:24.170Z</time>
      </trkpt>
      <trkpt lat="45.61666" lon="5.73422">
        <ele>669</ele>
        <time>2022-09-24T14:31:28.132Z</time>
      </trkpt>
      <trkpt lat="45.61676" lon="5.7343">
        <ele>670</ele>
        <time>2022-09-24T14:31:32.152Z</time>
      </trkpt>
      <trkpt lat="45.61686" lon="5.73437">
        <ele>671</ele>
        <time>2022-09-24T14:31:36.101Z</time>
      </trkpt>
      <trkpt lat="45.61696" lon="5.73444">
        <ele>671</ele>
        <time>2022-09-24T14:31:40.142Z</time>
      </trkpt>
      <trkpt lat="45.61707" lon="5.73449">
        <ele>672</ele>
        <time>2022-09-24T14:31:44.136Z</time>
      </trkpt>
      <trkpt lat="45.61718" lon="5.73452">
        <ele>673</ele>
        <time>2022-09-24T14:31:48.168Z</time>
      </trkpt>
      <trkpt lat="45.61729" lon="5.73455">
        <ele>674</ele>
        <time>2022-09-24T14:31:52.140Z</time>
      </trkpt>
      <trkpt lat="45.6174" lon="5.73459">
        <ele>675</ele>
        <time>2022-09-24T14:31:56.162Z</time>
      </trkpt>
      <trkpt lat="45.61751" lon="5.7346">
        <ele>676</ele>
        <time>2022-09-24T14:32:00.152Z</time>
      </trkpt>
      <trkpt lat="45.61761" lon="5.73458">
        <ele>677</ele>
        <time>2022-09-24T14:32:04.163Z</time>
      </trkpt>
      <trkpt lat="45.61771" lon="5.73455">
        <ele>678</ele>
        <time>2022-09-24T14:32:08.121Z</time>
      </trkpt>
      <trkpt lat="45.61781" lon="5.73451">
        <ele>679</ele>
        <time>2022-09-24T14:32:12.179Z</time>
      </trkpt>
      <trkpt lat="45.61791" lon="5.73445">
        <ele>680</ele>
        <time>2022-09-24T14:32:16.150Z</time>
      </trkpt>
      <trkpt lat="45.618" lon="5.73441">
        <ele>681</ele>
        <time>2022-09-24T14:32:20.139Z</time>
      </trkpt>
      <trkpt lat="45.6181" lon="5.73437">
        <ele>682</ele>
        <time>2022-09-24T14:32:24.170Z</time>
      </trkpt>
      <trkpt lat="45.61821" lon="5.73434">
        <ele>684</ele>
        <time>2022-09-24T14:32:28.166Z</time>
      </trkpt>
      <trkpt lat="45.6183" lon="5.73432">
        <ele>685</ele>
        <time>2022-09-24T14:32:32.175Z</time>
      </trkpt>
      <trkpt lat="45.61841" lon="5.7343">
        <ele>686</ele>
        <time>2022-09-24T14:32:37.174Z</time>
      </trkpt>
      <trkpt lat="45.61852" lon="5.73426">
        <ele>687</ele>
        <time>2022-09-24T14:32:41.168Z</time>
      </trkpt>
      <trkpt lat="45.61862" lon="5.73425">
        <ele>689</ele>
        <time>2022-09-24T14:32:45.184Z</time>
      </trkpt>
      <trkpt lat="45.61871" lon="5.73421">
        <ele>690</ele>
        <time>2022-09-24T14:32:49.178Z</time>
      </trkpt>
      <trkpt lat="45.6188" lon="5.73419">
        <ele>691</ele>
        <time>2022-09-24T14:32:53.157Z</time>
      </trkpt>
      <trkpt lat="45.6189" lon="5.73416">
        <ele>692</ele>
        <time>2022-09-24T14:32:57.139Z</time>
      </trkpt>
      <trkpt lat="45.619" lon="5.73413">
        <ele>694</ele>
        <time>2022-09-24T14:33:01.181Z</time>
      </trkpt>
      <trkpt lat="45.6191" lon="5.73411">
        <ele>695</ele>
        <time>2022-09-24T14:33:05.159Z</time>
      </trkpt>
      <trkpt lat="45.61919" lon="5.73408">
        <ele>696</ele>
        <time>2022-09-24T14:33:09.162Z</time>
      </trkpt>
      <trkpt lat="45.61928" lon="5.73407">
        <ele>697</ele>
        <time>2022-09-24T14:33:13.158Z</time>
      </trkpt>
      <trkpt lat="45.61938" lon="5.73405">
        <ele>698</ele>
        <time>2022-09-24T14:33:17.156Z</time>
      </trkpt>
      <trkpt lat="45.61948" lon="5.73405">
        <ele>699</ele>
        <time>2022-09-24T14:33:21.150Z</time>
      </trkpt>
      <trkpt lat="45.61957" lon="5.73403">
        <ele>699</ele>
        <time>2022-09-24T14:33:25.132Z</time>
      </trkpt>
      <trkpt lat="45.61966" lon="5.73399">
        <ele>700</ele>
        <time>2022-09-24T14:33:29.153Z</time>
      </trkpt>
      <trkpt lat="45.61976" lon="5.73394">
        <ele>701</ele>
        <time>2022-09-24T14:33:33.173Z</time>
      </trkpt>
      <trkpt lat="45.61985" lon="5.73388">
        <ele>701</ele>
        <time>2022-09-24T14:33:37.163Z</time>
      </trkpt>
      <trkpt lat="45.61994" lon="5.73382">
        <ele>702</ele>
        <time>2022-09-24T14:33:41.161Z</time>
      </trkpt>
      <trkpt lat="45.62003" lon="5.73376">
        <ele>703</ele>
        <time>2022-09-24T14:33:45.156Z</time>
      </trkpt>
      <trkpt lat="45.62013" lon="5.73368">
        <ele>703</ele>
        <time>2022-09-24T14:33:49.121Z</time>
      </trkpt>
      <trkpt lat="45.62021" lon="5.73357">
        <ele>704</ele>
        <time>2022-09-24T14:33:53.177Z</time>
      </trkpt>
      <trkpt lat="45.62027" lon="5.73344">
        <ele>704</ele>
        <time>2022-09-24T14:33:57.152Z</time>
      </trkpt>
      <trkpt lat="45.62031" lon="5.73329">
        <ele>705</ele>
        <time>2022-09-24T14:34:01.116Z</time>
      </trkpt>
      <trkpt lat="45.62034" lon="5.73312">
        <ele>706</ele>
        <time>2022-09-24T14:34:05.132Z</time>
      </trkpt>
      <trkpt lat="45.62036" lon="5.73296">
        <ele>706</ele>
        <time>2022-09-24T14:34:09.103Z</time>
      </trkpt>
      <trkpt lat="45.62037" lon="5.73279">
        <ele>707</ele>
        <time>2022-09-24T14:34:13.122Z</time>
      </trkpt>
      <trkpt lat="45.62036" lon="5.73263">
        <ele>708</ele>
        <time>2022-09-24T14:34:17.159Z</time>
      </trkpt>
      <trkpt lat="45.62035" lon="5.73247">
        <ele>708</ele>
        <time>2022-09-24T14:34:21.200Z</time>
      </trkpt>
      <trkpt lat="45.62033" lon="5.73231">
        <ele>709</ele>
        <time>2022-09-24T14:34:25.127Z</time>
      </trkpt>
      <trkpt lat="45.62029" lon="5.73214">
        <ele>710</ele>
        <time>2022-09-24T14:34:29.162Z</time>
      </trkpt>
      <trkpt lat="45.62022" lon="5.73198">
        <ele>711</ele>
        <time>2022-09-24T14:34:33.127Z</time>
      </trkpt>
      <trkpt lat="45.62013" lon="5.73185">
        <ele>711</ele>
        <time>2022-09-24T14:34:36.141Z</time>
      </trkpt>
      <trkpt lat="45.62" lon="5.7317">
        <ele>712</ele>
        <time>2022-09-24T14:34:40.160Z</time>
      </trkpt>
      <trkpt lat="45.61988" lon="5.73153">
        <ele>713</ele>
        <time>2022-09-24T14:34:44.185Z</time>
      </trkpt>
      <trkpt lat="45.61976" lon="5.73133">
        <ele>714</ele>
        <time>2022-09-24T14:34:48.154Z</time>
      </trkpt>
      <trkpt lat="45.61978" lon="5.73103">
        <ele>714</ele>
        <time>2022-09-24T14:34:53.151Z</time>
      </trkpt>
      <trkpt lat="45.6199" lon="5.73079">
        <ele>715</ele>
        <time>2022-09-24T14:34:58.181Z</time>
      </trkpt>
      <trkpt lat="45.62002" lon="5.73061">
        <ele>716</ele>
        <time>2022-09-24T14:35:02.173Z</time>
      </trkpt>
      <trkpt lat="45.62014" lon="5.73042">
        <ele>716</ele>
        <time>2022-09-24T14:35:07.154Z</time>
      </trkpt>
      <trkpt lat="45.62025" lon="5.73023">
        <ele>717</ele>
        <time>2022-09-24T14:35:12.183Z</time>
      </trkpt>
      <trkpt lat="45.62034" lon="5.73008">
        <ele>717</ele>
        <time>2022-09-24T14:35:16.140Z</time>
      </trkpt>
      <trkpt lat="45.62044" lon="5.72994">
        <ele>717</ele>
        <time>2022-09-24T14:35:20.167Z</time>
      </trkpt>
      <trkpt lat="45.62055" lon="5.72981">
        <ele>717</ele>
        <time>2022-09-24T14:35:24.144Z</time>
      </trkpt>
      <trkpt lat="45.6207" lon="5.72974">
        <ele>718</ele>
        <time>2022-09-24T14:35:28.173Z</time>
      </trkpt>
      <trkpt lat="45.62085" lon="5.72969">
        <ele>718</ele>
        <time>2022-09-24T14:35:32.154Z</time>
      </trkpt>
      <trkpt lat="45.62102" lon="5.72965">
        <ele>718</ele>
        <time>2022-09-24T14:35:36.161Z</time>
      </trkpt>
      <trkpt lat="45.62122" lon="5.72961">
        <ele>718</ele>
        <time>2022-09-24T14:35:40.182Z</time>
      </trkpt>
      <trkpt lat="45.62143" lon="5.72949">
        <ele>718</ele>
        <time>2022-09-24T14:35:44.164Z</time>
      </trkpt>
      <trkpt lat="45.62162" lon="5.72922">
        <ele>718</ele>
        <time>2022-09-24T14:35:48.194Z</time>
      </trkpt>
      <trkpt lat="45.62188" lon="5.72897">
        <ele>718</ele>
        <time>2022-09-24T14:35:52.174Z</time>
      </trkpt>
      <trkpt lat="45.62222" lon="5.72888">
        <ele>718</ele>
        <time>2022-09-24T14:35:56.165Z</time>
      </trkpt>
      <trkpt lat="45.6226" lon="5.72859">
        <ele>717</ele>
        <time>2022-09-24T14:36:01.159Z</time>
      </trkpt>
      <trkpt lat="45.62283" lon="5.72804">
        <ele>716</ele>
        <time>2022-09-24T14:36:06.142Z</time>
      </trkpt>
      <trkpt lat="45.6232" lon="5.72775">
        <ele>715</ele>
        <time>2022-09-24T14:36:11.142Z</time>
      </trkpt>
      <trkpt lat="45.62356" lon="5.72747">
        <ele>713</ele>
        <time>2022-09-24T14:36:17.172Z</time>
      </trkpt>
      <trkpt lat="45.62387" lon="5.72724">
        <ele>712</ele>
        <time>2022-09-24T14:36:23.152Z</time>
      </trkpt>
      <trkpt lat="45.62412" lon="5.72705">
        <ele>711</ele>
        <time>2022-09-24T14:36:28.162Z</time>
      </trkpt>
      <trkpt lat="45.62438" lon="5.72686">
        <ele>711</ele>
        <time>2022-09-24T14:36:33.147Z</time>
      </trkpt>
      <trkpt lat="45.62464" lon="5.72674">
        <ele>710</ele>
        <time>2022-09-24T14:36:38.172Z</time>
      </trkpt>
      <trkpt lat="45.62489" lon="5.72662">
        <ele>709</ele>
        <time>2022-09-24T14:36:43.165Z</time>
      </trkpt>
      <trkpt lat="45.62513" lon="5.7265">
        <ele>709</ele>
        <time>2022-09-24T14:36:48.179Z</time>
      </trkpt>
      <trkpt lat="45.62537" lon="5.7264">
        <ele>710</ele>
        <time>2022-09-24T14:36:53.182Z</time>
      </trkpt>
      <trkpt lat="45.62559" lon="5.72632">
        <ele>710</ele>
        <time>2022-09-24T14:36:57.159Z</time>
      </trkpt>
      <trkpt lat="45.62582" lon="5.7263">
        <ele>710</ele>
        <time>2022-09-24T14:37:01.135Z</time>
      </trkpt>
      <trkpt lat="45.62605" lon="5.72628">
        <ele>711</ele>
        <time>2022-09-24T14:37:05.193Z</time>
      </trkpt>
      <trkpt lat="45.62631" lon="5.72624">
        <ele>711</ele>
        <time>2022-09-24T14:37:09.181Z</time>
      </trkpt>
      <trkpt lat="45.62658" lon="5.72619">
        <ele>711</ele>
        <time>2022-09-24T14:37:13.190Z</time>
      </trkpt>
      <trkpt lat="45.62689" lon="5.72614">
        <ele>711</ele>
        <time>2022-09-24T14:37:17.145Z</time>
      </trkpt>
      <trkpt lat="45.62729" lon="5.72606">
        <ele>711</ele>
        <time>2022-09-24T14:37:22.171Z</time>
      </trkpt>
      <trkpt lat="45.62771" lon="5.72591">
        <ele>711</ele>
        <time>2022-09-24T14:37:27.163Z</time>
      </trkpt>
      <trkpt lat="45.62813" lon="5.72576">
        <ele>710</ele>
        <time>2022-09-24T14:37:32.128Z</time>
      </trkpt>
      <trkpt lat="45.62858" lon="5.7256">
        <ele>709</ele>
        <time>2022-09-24T14:37:37.170Z</time>
      </trkpt>
      <trkpt lat="45.62901" lon="5.72537">
        <ele>707</ele>
        <time>2022-09-24T14:37:42.180Z</time>
      </trkpt>
      <trkpt lat="45.62944" lon="5.72511">
        <ele>706</ele>
        <time>2022-09-24T14:37:47.184Z</time>
      </trkpt>
      <trkpt lat="45.62993" lon="5.72505">
        <ele>704</ele>
        <time>2022-09-24T14:37:52.185Z</time>
      </trkpt>
      <trkpt lat="45.63033" lon="5.72478">
        <ele>702</ele>
        <time>2022-09-24T14:37:57.159Z</time>
      </trkpt>
      <trkpt lat="45.63068" lon="5.72428">
        <ele>700</ele>
        <time>2022-09-24T14:38:02.208Z</time>
      </trkpt>
      <trkpt lat="45.63119" lon="5.72429">
        <ele>698</ele>
        <time>2022-09-24T14:38:07.191Z</time>
      </trkpt>
      <trkpt lat="45.63171" lon="5.72438">
        <ele>695</ele>
        <time>2022-09-24T14:38:12.172Z</time>
      </trkpt>
      <trkpt lat="45.63221" lon="5.72435">
        <ele>693</ele>
        <time>2022-09-24T14:38:17.177Z</time>
      </trkpt>
      <trkpt lat="45.6327" lon="5.7242">
        <ele>690</ele>
        <time>2022-09-24T14:38:22.189Z</time>
      </trkpt>
      <trkpt lat="45.63318" lon="5.72421">
        <ele>688</ele>
        <time>2022-09-24T14:38:27.176Z</time>
      </trkpt>
      <trkpt lat="45.63365" lon="5.7243">
        <ele>686</ele>
        <time>2022-09-24T14:38:32.120Z</time>
      </trkpt>
      <trkpt lat="45.63409" lon="5.72436">
        <ele>684</ele>
        <time>2022-09-24T14:38:37.144Z</time>
      </trkpt>
      <trkpt lat="45.63452" lon="5.72433">
        <ele>681</ele>
        <time>2022-09-24T14:38:42.145Z</time>
      </trkpt>
      <trkpt lat="45.63494" lon="5.72436">
        <ele>679</ele>
        <time>2022-09-24T14:38:47.158Z</time>
      </trkpt>
      <trkpt lat="45.63531" lon="5.72447">
        <ele>677</ele>
        <time>2022-09-24T14:38:52.201Z</time>
      </trkpt>
      <trkpt lat="45.63568" lon="5.72447">
        <ele>676</ele>
        <time>2022-09-24T14:38:57.199Z</time>
      </trkpt>
      <trkpt lat="45.63602" lon="5.72442">
        <ele>675</ele>
        <time>2022-09-24T14:39:02.183Z</time>
      </trkpt>
      <trkpt lat="45.63635" lon="5.72442">
        <ele>674</ele>
        <time>2022-09-24T14:39:07.190Z</time>
      </trkpt>
      <trkpt lat="45.63664" lon="5.72446">
        <ele>673</ele>
        <time>2022-09-24T14:39:12.184Z</time>
      </trkpt>
      <trkpt lat="45.63688" lon="5.72447">
        <ele>672</ele>
        <time>2022-09-24T14:39:17.195Z</time>
      </trkpt>
      <trkpt lat="45.63711" lon="5.72449">
        <ele>672</ele>
        <time>2022-09-24T14:39:22.145Z</time>
      </trkpt>
      <trkpt lat="45.63735" lon="5.72452">
        <ele>672</ele>
        <time>2022-09-24T14:39:27.182Z</time>
      </trkpt>
      <trkpt lat="45.63757" lon="5.72454">
        <ele>672</ele>
        <time>2022-09-24T14:39:32.211Z</time>
      </trkpt>
      <trkpt lat="45.6378" lon="5.72457">
        <ele>672</ele>
        <time>2022-09-24T14:39:37.205Z</time>
      </trkpt>
      <trkpt lat="45.63802" lon="5.72458">
        <ele>672</ele>
        <time>2022-09-24T14:39:42.200Z</time>
      </trkpt>
      <trkpt lat="45.63822" lon="5.7246">
        <ele>673</ele>
        <time>2022-09-24T14:39:47.183Z</time>
      </trkpt>
      <trkpt lat="45.63838" lon="5.72461">
        <ele>673</ele>
        <time>2022-09-24T14:39:51.163Z</time>
      </trkpt>
      <trkpt lat="45.63855" lon="5.72461">
        <ele>674</ele>
        <time>2022-09-24T14:39:55.185Z</time>
      </trkpt>
      <trkpt lat="45.63871" lon="5.72462">
        <ele>674</ele>
        <time>2022-09-24T14:39:59.182Z</time>
      </trkpt>
      <trkpt lat="45.63888" lon="5.72463">
        <ele>675</ele>
        <time>2022-09-24T14:40:03.194Z</time>
      </trkpt>
      <trkpt lat="45.63907" lon="5.72466">
        <ele>675</ele>
        <time>2022-09-24T14:40:07.200Z</time>
      </trkpt>
      <trkpt lat="45.63927" lon="5.7247">
        <ele>676</ele>
        <time>2022-09-24T14:40:11.172Z</time>
      </trkpt>
      <trkpt lat="45.63947" lon="5.72476">
        <ele>676</ele>
        <time>2022-09-24T14:40:14.191Z</time>
      </trkpt>
      <trkpt lat="45.63972" lon="5.72483">
        <ele>677</ele>
        <time>2022-09-24T14:40:17.179Z</time>
      </trkpt>
      <trkpt lat="45.6401" lon="5.72496">
        <ele>677</ele>
        <time>2022-09-24T14:40:21.199Z</time>
      </trkpt>
      <trkpt lat="45.64059" lon="5.7251">
        <ele>677</ele>
        <time>2022-09-24T14:40:26.188Z</time>
      </trkpt>
      <trkpt lat="45.64103" lon="5.72551">
        <ele>677</ele>
        <time>2022-09-24T14:40:31.176Z</time>
      </trkpt>
      <trkpt lat="45.64155" lon="5.72572">
        <ele>677</ele>
        <time>2022-09-24T14:40:37.186Z</time>
      </trkpt>
      <trkpt lat="45.64203" lon="5.72579">
        <ele>676</ele>
        <time>2022-09-24T14:40:43.199Z</time>
      </trkpt>
      <trkpt lat="45.64238" lon="5.72577">
        <ele>675</ele>
        <time>2022-09-24T14:40:49.214Z</time>
      </trkpt>
      <trkpt lat="45.64261" lon="5.72573">
        <ele>673</ele>
        <time>2022-09-24T14:40:55.193Z</time>
      </trkpt>
      <trkpt lat="45.64277" lon="5.7257">
        <ele>672</ele>
        <time>2022-09-24T14:41:00.187Z</time>
      </trkpt>
      <trkpt lat="45.64292" lon="5.72566">
        <ele>671</ele>
        <time>2022-09-24T14:41:05.190Z</time>
      </trkpt>
      <trkpt lat="45.64304" lon="5.72563">
        <ele>671</ele>
        <time>2022-09-24T14:41:09.172Z</time>
      </trkpt>
      <trkpt lat="45.64317" lon="5.72561">
        <ele>670</ele>
        <time>2022-09-24T14:41:13.169Z</time>
      </trkpt>
      <trkpt lat="45.64329" lon="5.72559">
        <ele>670</ele>
        <time>2022-09-24T14:41:17.158Z</time>
      </trkpt>
      <trkpt lat="45.6434" lon="5.72557">
        <ele>670</ele>
        <time>2022-09-24T14:41:21.176Z</time>
      </trkpt>
      <trkpt lat="45.64351" lon="5.72554">
        <ele>670</ele>
        <time>2022-09-24T14:41:25.140Z</time>
      </trkpt>
      <trkpt lat="45.6436" lon="5.72553">
        <ele>670</ele>
        <time>2022-09-24T14:41:29.172Z</time>
      </trkpt>
      <trkpt lat="45.6437" lon="5.72551">
        <ele>671</ele>
        <time>2022-09-24T14:41:33.187Z</time>
      </trkpt>
      <trkpt lat="45.64379" lon="5.72549">
        <ele>671</ele>
        <time>2022-09-24T14:41:37.132Z</time>
      </trkpt>
      <trkpt lat="45.64389" lon="5.72548">
        <ele>672</ele>
        <time>2022-09-24T14:41:41.188Z</time>
      </trkpt>
      <trkpt lat="45.64399" lon="5.72545">
        <ele>672</ele>
        <time>2022-09-24T14:41:45.177Z</time>
      </trkpt>
      <trkpt lat="45.64409" lon="5.72543">
        <ele>673</ele>
        <time>2022-09-24T14:41:49.167Z</time>
      </trkpt>
      <trkpt lat="45.64419" lon="5.72542">
        <ele>673</ele>
        <time>2022-09-24T14:41:53.183Z</time>
      </trkpt>
      <trkpt lat="45.64428" lon="5.72541">
        <ele>674</ele>
        <time>2022-09-24T14:41:57.160Z</time>
      </trkpt>
      <trkpt lat="45.64438" lon="5.72539">
        <ele>675</ele>
        <time>2022-09-24T14:42:01.159Z</time>
      </trkpt>
      <trkpt lat="45.64447" lon="5.72538">
        <ele>676</ele>
        <time>2022-09-24T14:42:05.172Z</time>
      </trkpt>
      <trkpt lat="45.64456" lon="5.72536">
        <ele>676</ele>
        <time>2022-09-24T14:42:09.165Z</time>
      </trkpt>
      <trkpt lat="45.64467" lon="5.72533">
        <ele>677</ele>
        <time>2022-09-24T14:42:13.185Z</time>
      </trkpt>
      <trkpt lat="45.64476" lon="5.72532">
        <ele>678</ele>
        <time>2022-09-24T14:42:17.170Z</time>
      </trkpt>
      <trkpt lat="45.64486" lon="5.72529">
        <ele>679</ele>
        <time>2022-09-24T14:42:21.178Z</time>
      </trkpt>
      <trkpt lat="45.64496" lon="5.72526">
        <ele>680</ele>
        <time>2022-09-24T14:42:25.168Z</time>
      </trkpt>
      <trkpt lat="45.64505" lon="5.72524">
        <ele>681</ele>
        <time>2022-09-24T14:42:29.166Z</time>
      </trkpt>
      <trkpt lat="45.64516" lon="5.72521">
        <ele>682</ele>
        <time>2022-09-24T14:42:33.157Z</time>
      </trkpt>
      <trkpt lat="45.64527" lon="5.72518">
        <ele>683</ele>
        <time>2022-09-24T14:42:37.183Z</time>
      </trkpt>
      <trkpt lat="45.64537" lon="5.72515">
        <ele>684</ele>
        <time>2022-09-24T14:42:41.154Z</time>
      </trkpt>
      <trkpt lat="45.64546" lon="5.72511">
        <ele>686</ele>
        <time>2022-09-24T14:42:45.187Z</time>
      </trkpt>
      <trkpt lat="45.64556" lon="5.72509">
        <ele>687</ele>
        <time>2022-09-24T14:42:50.163Z</time>
      </trkpt>
      <trkpt lat="45.6456" lon="5.72508">
        <ele>689</ele>
        <time>2022-09-24T14:43:05.121Z</time>
      </trkpt>
      <trkpt lat="45.6456" lon="5.72508">
        <ele>689</ele>
        <time>2022-09-24T14:44:11.164Z</time>
      </trkpt>
      <trkpt lat="45.64539" lon="5.72493">
        <ele>690</ele>
        <time>2022-09-24T14:44:12.165Z</time>
      </trkpt>
      <trkpt lat="45.64528" lon="5.72493">
        <ele>690</ele>
        <time>2022-09-24T14:44:17.186Z</time>
      </trkpt>
      <trkpt lat="45.64518" lon="5.72492">
        <ele>691</ele>
        <time>2022-09-24T14:44:21.137Z</time>
      </trkpt>
      <trkpt lat="45.64508" lon="5.72491">
        <ele>691</ele>
        <time>2022-09-24T14:44:25.165Z</time>
      </trkpt>
      <trkpt lat="45.64498" lon="5.7249">
        <ele>692</ele>
        <time>2022-09-24T14:44:29.173Z</time>
      </trkpt>
      <trkpt lat="45.64489" lon="5.7249">
        <ele>693</ele>
        <time>2022-09-24T14:44:33.159Z</time>
      </trkpt>
      <trkpt lat="45.6448" lon="5.72488">
        <ele>694</ele>
        <time>2022-09-24T14:44:37.171Z</time>
      </trkpt>
      <trkpt lat="45.64471" lon="5.72485">
        <ele>695</ele>
        <time>2022-09-24T14:44:41.186Z</time>
      </trkpt>
      <trkpt lat="45.64462" lon="5.72481">
        <ele>696</ele>
        <time>2022-09-24T14:44:45.148Z</time>
      </trkpt>
      <trkpt lat="45.64452" lon="5.72477">
        <ele>697</ele>
        <time>2022-09-24T14:44:49.169Z</time>
      </trkpt>
      <trkpt lat="45.64442" lon="5.72472">
        <ele>699</ele>
        <time>2022-09-24T14:44:54.171Z</time>
      </trkpt>
      <trkpt lat="45.64433" lon="5.72467">
        <ele>700</ele>
        <time>2022-09-24T14:44:58.193Z</time>
      </trkpt>
      <trkpt lat="45.64423" lon="5.72463">
        <ele>701</ele>
        <time>2022-09-24T14:45:03.191Z</time>
      </trkpt>
      <trkpt lat="45.64414" lon="5.72459">
        <ele>702</ele>
        <time>2022-09-24T14:45:07.198Z</time>
      </trkpt>
      <trkpt lat="45.64406" lon="5.72454">
        <ele>703</ele>
        <time>2022-09-24T14:45:11.192Z</time>
      </trkpt>
      <trkpt lat="45.64395" lon="5.7245">
        <ele>704</ele>
        <time>2022-09-24T14:45:16.198Z</time>
      </trkpt>
      <trkpt lat="45.64385" lon="5.72445">
        <ele>705</ele>
        <time>2022-09-24T14:45:21.149Z</time>
      </trkpt>
      <trkpt lat="45.64374" lon="5.72441">
        <ele>706</ele>
        <time>2022-09-24T14:45:26.156Z</time>
      </trkpt>
      <trkpt lat="45.64364" lon="5.72438">
        <ele>707</ele>
        <time>2022-09-24T14:45:31.165Z</time>
      </trkpt>
      <trkpt lat="45.64355" lon="5.72433">
        <ele>708</ele>
        <time>2022-09-24T14:45:35.147Z</time>
      </trkpt>
      <trkpt lat="45.64347" lon="5.72425">
        <ele>709</ele>
        <time>2022-09-24T14:45:39.166Z</time>
      </trkpt>
      <trkpt lat="45.64342" lon="5.72414">
        <ele>710</ele>
        <time>2022-09-24T14:45:43.164Z</time>
      </trkpt>
      <trkpt lat="45.64337" lon="5.724">
        <ele>711</ele>
        <time>2022-09-24T14:45:47.169Z</time>
      </trkpt>
      <trkpt lat="45.64333" lon="5.72387">
        <ele>712</ele>
        <time>2022-09-24T14:45:51.171Z</time>
      </trkpt>
      <trkpt lat="45.64328" lon="5.72375">
        <ele>713</ele>
        <time>2022-09-24T14:45:55.162Z</time>
      </trkpt>
      <trkpt lat="45.64322" lon="5.72363">
        <ele>715</ele>
        <time>2022-09-24T14:46:00.187Z</time>
      </trkpt>
      <trkpt lat="45.64315" lon="5.72352">
        <ele>716</ele>
        <time>2022-09-24T14:46:05.177Z</time>
      </trkpt>
      <trkpt lat="45.64309" lon="5.72342">
        <ele>717</ele>
        <time>2022-09-24T14:46:09.185Z</time>
      </trkpt>
      <trkpt lat="45.64301" lon="5.72334">
        <ele>717</ele>
        <time>2022-09-24T14:46:13.186Z</time>
      </trkpt>
      <trkpt lat="45.64293" lon="5.72328">
        <ele>718</ele>
        <time>2022-09-24T14:46:17.155Z</time>
      </trkpt>
      <trkpt lat="45.64283" lon="5.72322">
        <ele>719</ele>
        <time>2022-09-24T14:46:22.171Z</time>
      </trkpt>
      <trkpt lat="45.64274" lon="5.72313">
        <ele>720</ele>
        <time>2022-09-24T14:46:27.195Z</time>
      </trkpt>
      <trkpt lat="45.64266" lon="5.72306">
        <ele>721</ele>
        <time>2022-09-24T14:46:31.187Z</time>
      </trkpt>
      <trkpt lat="45.64258" lon="5.72296">
        <ele>722</ele>
        <time>2022-09-24T14:46:35.181Z</time>
      </trkpt>
      <trkpt lat="45.64251" lon="5.72288">
        <ele>723</ele>
        <time>2022-09-24T14:46:39.178Z</time>
      </trkpt>
      <trkpt lat="45.64242" lon="5.72281">
        <ele>724</ele>
        <time>2022-09-24T14:46:43.171Z</time>
      </trkpt>
      <trkpt lat="45.64232" lon="5.72275">
        <ele>725</ele>
        <time>2022-09-24T14:46:48.177Z</time>
      </trkpt>
      <trkpt lat="45.64224" lon="5.72267">
        <ele>726</ele>
        <time>2022-09-24T14:46:52.140Z</time>
      </trkpt>
      <trkpt lat="45.64215" lon="5.72259">
        <ele>727</ele>
        <time>2022-09-24T14:46:57.149Z</time>
      </trkpt>
      <trkpt lat="45.64205" lon="5.72252">
        <ele>727</ele>
        <time>2022-09-24T14:47:02.183Z</time>
      </trkpt>
      <trkpt lat="45.64196" lon="5.72243">
        <ele>728</ele>
        <time>2022-09-24T14:47:07.157Z</time>
      </trkpt>
      <trkpt lat="45.6419" lon="5.72233">
        <ele>729</ele>
        <time>2022-09-24T14:47:11.157Z</time>
      </trkpt>
      <trkpt lat="45.64185" lon="5.7222">
        <ele>730</ele>
        <time>2022-09-24T14:47:16.163Z</time>
      </trkpt>
      <trkpt lat="45.64185" lon="5.72204">
        <ele>731</ele>
        <time>2022-09-24T14:47:21.184Z</time>
      </trkpt>
      <trkpt lat="45.64188" lon="5.72191">
        <ele>732</ele>
        <time>2022-09-24T14:47:26.194Z</time>
      </trkpt>
      <trkpt lat="45.64196" lon="5.72181">
        <ele>734</ele>
        <time>2022-09-24T14:47:32.167Z</time>
      </trkpt>
      <trkpt lat="45.64206" lon="5.72176">
        <ele>735</ele>
        <time>2022-09-24T14:47:37.152Z</time>
      </trkpt>
      <trkpt lat="45.64215" lon="5.72174">
        <ele>737</ele>
        <time>2022-09-24T14:47:41.196Z</time>
      </trkpt>
      <trkpt lat="45.64225" lon="5.72172">
        <ele>738</ele>
        <time>2022-09-24T14:47:45.174Z</time>
      </trkpt>
      <trkpt lat="45.64235" lon="5.72168">
        <ele>739</ele>
        <time>2022-09-24T14:47:49.163Z</time>
      </trkpt>
      <trkpt lat="45.64244" lon="5.72166">
        <ele>740</ele>
        <time>2022-09-24T14:47:53.202Z</time>
      </trkpt>
      <trkpt lat="45.64254" lon="5.72161">
        <ele>741</ele>
        <time>2022-09-24T14:47:57.149Z</time>
      </trkpt>
      <trkpt lat="45.64261" lon="5.72151">
        <ele>742</ele>
        <time>2022-09-24T14:48:01.140Z</time>
      </trkpt>
      <trkpt lat="45.64263" lon="5.72137">
        <ele>742</ele>
        <time>2022-09-24T14:48:05.158Z</time>
      </trkpt>
      <trkpt lat="45.64259" lon="5.72125">
        <ele>743</ele>
        <time>2022-09-24T14:48:09.174Z</time>
      </trkpt>
      <trkpt lat="45.6425" lon="5.72115">
        <ele>744</ele>
        <time>2022-09-24T14:48:14.164Z</time>
      </trkpt>
      <trkpt lat="45.64242" lon="5.72107">
        <ele>745</ele>
        <time>2022-09-24T14:48:18.156Z</time>
      </trkpt>
      <trkpt lat="45.64237" lon="5.72095">
        <ele>746</ele>
        <time>2022-09-24T14:48:22.191Z</time>
      </trkpt>
      <trkpt lat="45.64235" lon="5.72079">
        <ele>748</ele>
        <time>2022-09-24T14:48:27.195Z</time>
      </trkpt>
      <trkpt lat="45.64237" lon="5.72065">
        <ele>749</ele>
        <time>2022-09-24T14:48:31.174Z</time>
      </trkpt>
      <trkpt lat="45.64237" lon="5.72049">
        <ele>751</ele>
        <time>2022-09-24T14:48:35.194Z</time>
      </trkpt>
      <trkpt lat="45.64232" lon="5.72035">
        <ele>753</ele>
        <time>2022-09-24T14:48:39.151Z</time>
      </trkpt>
      <trkpt lat="45.64225" lon="5.72024">
        <ele>755</ele>
        <time>2022-09-24T14:48:44.185Z</time>
      </trkpt>
      <trkpt lat="45.64216" lon="5.7202">
        <ele>757</ele>
        <time>2022-09-24T14:48:49.160Z</time>
      </trkpt>
      <trkpt lat="45.64207" lon="5.72016">
        <ele>759</ele>
        <time>2022-09-24T14:48:54.111Z</time>
      </trkpt>
      <trkpt lat="45.64198" lon="5.72008">
        <ele>761</ele>
        <time>2022-09-24T14:48:59.222Z</time>
      </trkpt>
      <trkpt lat="45.64188" lon="5.72005">
        <ele>764</ele>
        <time>2022-09-24T14:49:04.168Z</time>
      </trkpt>
      <trkpt lat="45.64179" lon="5.71998">
        <ele>766</ele>
        <time>2022-09-24T14:49:10.201Z</time>
      </trkpt>
      <trkpt lat="45.64171" lon="5.71993">
        <ele>768</ele>
        <time>2022-09-24T14:49:15.146Z</time>
      </trkpt>
      <trkpt lat="45.64162" lon="5.7199">
        <ele>770</ele>
        <time>2022-09-24T14:49:21.126Z</time>
      </trkpt>
      <trkpt lat="45.64151" lon="5.71987">
        <ele>771</ele>
        <time>2022-09-24T14:49:25.181Z</time>
      </trkpt>
      <trkpt lat="45.6414" lon="5.71985">
        <ele>773</ele>
        <time>2022-09-24T14:49:29.204Z</time>
      </trkpt>
      <trkpt lat="45.6413" lon="5.71982">
        <ele>774</ele>
        <time>2022-09-24T14:49:33.177Z</time>
      </trkpt>
      <trkpt lat="45.6412" lon="5.7198">
        <ele>775</ele>
        <time>2022-09-24T14:49:37.188Z</time>
      </trkpt>
      <trkpt lat="45.6411" lon="5.71977">
        <ele>775</ele>
        <time>2022-09-24T14:49:41.163Z</time>
      </trkpt>
      <trkpt lat="45.641" lon="5.71972">
        <ele>776</ele>
        <time>2022-09-24T14:49:45.162Z</time>
      </trkpt>
      <trkpt lat="45.64091" lon="5.71968">
        <ele>777</ele>
        <time>2022-09-24T14:49:49.188Z</time>
      </trkpt>
      <trkpt lat="45.64082" lon="5.71964">
        <ele>777</ele>
        <time>2022-09-24T14:49:53.187Z</time>
      </trkpt>
      <trkpt lat="45.64071" lon="5.71961">
        <ele>777</ele>
        <time>2022-09-24T14:49:58.158Z</time>
      </trkpt>
      <trkpt lat="45.64061" lon="5.7196">
        <ele>777</ele>
        <time>2022-09-24T14:50:02.179Z</time>
      </trkpt>
      <trkpt lat="45.6405" lon="5.71957">
        <ele>778</ele>
        <time>2022-09-24T14:50:06.162Z</time>
      </trkpt>
      <trkpt lat="45.64041" lon="5.71953">
        <ele>778</ele>
        <time>2022-09-24T14:50:10.174Z</time>
      </trkpt>
      <trkpt lat="45.64032" lon="5.71948">
        <ele>778</ele>
        <time>2022-09-24T14:50:14.183Z</time>
      </trkpt>
      <trkpt lat="45.64024" lon="5.71942">
        <ele>779</ele>
        <time>2022-09-24T14:50:18.191Z</time>
      </trkpt>
      <trkpt lat="45.64018" lon="5.71932">
        <ele>779</ele>
        <time>2022-09-24T14:50:22.167Z</time>
      </trkpt>
      <trkpt lat="45.64013" lon="5.71918">
        <ele>780</ele>
        <time>2022-09-24T14:50:27.183Z</time>
      </trkpt>
      <trkpt lat="45.64014" lon="5.71903">
        <ele>780</ele>
        <time>2022-09-24T14:50:31.147Z</time>
      </trkpt>
      <trkpt lat="45.64019" lon="5.71891">
        <ele>781</ele>
        <time>2022-09-24T14:50:35.161Z</time>
      </trkpt>
      <trkpt lat="45.64024" lon="5.71881">
        <ele>781</ele>
        <time>2022-09-24T14:50:40.166Z</time>
      </trkpt>
      <trkpt lat="45.64029" lon="5.71868">
        <ele>781</ele>
        <time>2022-09-24T14:50:44.129Z</time>
      </trkpt>
      <trkpt lat="45.64031" lon="5.71855">
        <ele>782</ele>
        <time>2022-09-24T14:50:48.173Z</time>
      </trkpt>
      <trkpt lat="45.64032" lon="5.7184">
        <ele>782</ele>
        <time>2022-09-24T14:50:53.210Z</time>
      </trkpt>
      <trkpt lat="45.6403" lon="5.71824">
        <ele>782</ele>
        <time>2022-09-24T14:50:58.167Z</time>
      </trkpt>
      <trkpt lat="45.64027" lon="5.71811">
        <ele>783</ele>
        <time>2022-09-24T14:51:02.190Z</time>
      </trkpt>
      <trkpt lat="45.64022" lon="5.71799">
        <ele>784</ele>
        <time>2022-09-24T14:51:06.185Z</time>
      </trkpt>
      <trkpt lat="45.64014" lon="5.71789">
        <ele>785</ele>
        <time>2022-09-24T14:51:12.178Z</time>
      </trkpt>
      <trkpt lat="45.64008" lon="5.71778">
        <ele>786</ele>
        <time>2022-09-24T14:51:16.143Z</time>
      </trkpt>
      <trkpt lat="45.64002" lon="5.71766">
        <ele>787</ele>
        <time>2022-09-24T14:51:20.141Z</time>
      </trkpt>
      <trkpt lat="45.63995" lon="5.71757">
        <ele>788</ele>
        <time>2022-09-24T14:51:24.187Z</time>
      </trkpt>
      <trkpt lat="45.63987" lon="5.7175">
        <ele>789</ele>
        <time>2022-09-24T14:51:28.163Z</time>
      </trkpt>
      <trkpt lat="45.63978" lon="5.71743">
        <ele>790</ele>
        <time>2022-09-24T14:51:33.180Z</time>
      </trkpt>
      <trkpt lat="45.63968" lon="5.71735">
        <ele>791</ele>
        <time>2022-09-24T14:51:38.178Z</time>
      </trkpt>
      <trkpt lat="45.6396" lon="5.71726">
        <ele>792</ele>
        <time>2022-09-24T14:51:42.182Z</time>
      </trkpt>
      <trkpt lat="45.63951" lon="5.71719">
        <ele>793</ele>
        <time>2022-09-24T14:51:47.166Z</time>
      </trkpt>
      <trkpt lat="45.63942" lon="5.71713">
        <ele>794</ele>
        <time>2022-09-24T14:51:52.162Z</time>
      </trkpt>
      <trkpt lat="45.63933" lon="5.71707">
        <ele>795</ele>
        <time>2022-09-24T14:51:57.195Z</time>
      </trkpt>
      <trkpt lat="45.63925" lon="5.717">
        <ele>796</ele>
        <time>2022-09-24T14:52:02.169Z</time>
      </trkpt>
      <trkpt lat="45.63918" lon="5.71692">
        <ele>797</ele>
        <time>2022-09-24T14:52:07.180Z</time>
      </trkpt>
      <trkpt lat="45.63909" lon="5.71685">
        <ele>798</ele>
        <time>2022-09-24T14:52:11.176Z</time>
      </trkpt>
      <trkpt lat="45.63899" lon="5.71679">
        <ele>799</ele>
        <time>2022-09-24T14:52:15.175Z</time>
      </trkpt>
      <trkpt lat="45.6389" lon="5.71673">
        <ele>801</ele>
        <time>2022-09-24T14:52:19.181Z</time>
      </trkpt>
      <trkpt lat="45.6388" lon="5.71672">
        <ele>803</ele>
        <time>2022-09-24T14:52:24.153Z</time>
      </trkpt>
      <trkpt lat="45.6387" lon="5.71676">
        <ele>804</ele>
        <time>2022-09-24T14:52:29.187Z</time>
      </trkpt>
      <trkpt lat="45.63862" lon="5.71681">
        <ele>806</ele>
        <time>2022-09-24T14:52:34.182Z</time>
      </trkpt>
      <trkpt lat="45.63852" lon="5.71681">
        <ele>807</ele>
        <time>2022-09-24T14:52:39.174Z</time>
      </trkpt>
      <trkpt lat="45.63843" lon="5.71675">
        <ele>808</ele>
        <time>2022-09-24T14:52:43.226Z</time>
      </trkpt>
      <trkpt lat="45.63837" lon="5.71665">
        <ele>809</ele>
        <time>2022-09-24T14:52:47.165Z</time>
      </trkpt>
      <trkpt lat="45.63834" lon="5.71652">
        <ele>810</ele>
        <time>2022-09-24T14:52:51.194Z</time>
      </trkpt>
      <trkpt lat="45.6383" lon="5.71637">
        <ele>811</ele>
        <time>2022-09-24T14:52:56.208Z</time>
      </trkpt>
      <trkpt lat="45.63827" lon="5.71623">
        <ele>812</ele>
        <time>2022-09-24T14:53:00.169Z</time>
      </trkpt>
      <trkpt lat="45.63828" lon="5.71607">
        <ele>813</ele>
        <time>2022-09-24T14:53:04.127Z</time>
      </trkpt>
      <trkpt lat="45.63834" lon="5.71592">
        <ele>814</ele>
        <time>2022-09-24T14:53:08.155Z</time>
      </trkpt>
      <trkpt lat="45.63839" lon="5.71577">
        <ele>815</ele>
        <time>2022-09-24T14:53:12.203Z</time>
      </trkpt>
      <trkpt lat="45.63844" lon="5.71565">
        <ele>815</ele>
        <time>2022-09-24T14:53:16.184Z</time>
      </trkpt>
      <trkpt lat="45.63848" lon="5.71553">
        <ele>816</ele>
        <time>2022-09-24T14:53:20.170Z</time>
      </trkpt>
      <trkpt lat="45.63854" lon="5.71539">
        <ele>817</ele>
        <time>2022-09-24T14:53:25.145Z</time>
      </trkpt>
      <trkpt lat="45.63861" lon="5.7153">
        <ele>818</ele>
        <time>2022-09-24T14:53:30.183Z</time>
      </trkpt>
      <trkpt lat="45.63869" lon="5.71525">
        <ele>818</ele>
        <time>2022-09-24T14:53:34.143Z</time>
      </trkpt>
      <trkpt lat="45.63879" lon="5.7152">
        <ele>819</ele>
        <time>2022-09-24T14:53:38.180Z</time>
      </trkpt>
      <trkpt lat="45.63888" lon="5.71516">
        <ele>820</ele>
        <time>2022-09-24T14:53:42.132Z</time>
      </trkpt>
      <trkpt lat="45.63899" lon="5.71513">
        <ele>821</ele>
        <time>2022-09-24T14:53:47.170Z</time>
      </trkpt>
      <trkpt lat="45.63911" lon="5.7151">
        <ele>822</ele>
        <time>2022-09-24T14:53:52.159Z</time>
      </trkpt>
      <trkpt lat="45.63921" lon="5.71506">
        <ele>823</ele>
        <time>2022-09-24T14:53:56.178Z</time>
      </trkpt>
      <trkpt lat="45.63932" lon="5.71502">
        <ele>824</ele>
        <time>2022-09-24T14:54:00.178Z</time>
      </trkpt>
      <trkpt lat="45.63942" lon="5.71495">
        <ele>825</ele>
        <time>2022-09-24T14:54:04.162Z</time>
      </trkpt>
      <trkpt lat="45.63945" lon="5.71483">
        <ele>827</ele>
        <time>2022-09-24T14:54:09.165Z</time>
      </trkpt>
      <trkpt lat="45.63943" lon="5.7147">
        <ele>828</ele>
        <time>2022-09-24T14:54:14.166Z</time>
      </trkpt>
      <trkpt lat="45.63944" lon="5.71456">
        <ele>829</ele>
        <time>2022-09-24T14:54:18.208Z</time>
      </trkpt>
      <trkpt lat="45.63947" lon="5.71444">
        <ele>831</ele>
        <time>2022-09-24T14:54:22.176Z</time>
      </trkpt>
      <trkpt lat="45.63953" lon="5.71432">
        <ele>832</ele>
        <time>2022-09-24T14:54:26.189Z</time>
      </trkpt>
      <trkpt lat="45.63961" lon="5.71425">
        <ele>833</ele>
        <time>2022-09-24T14:54:29.208Z</time>
      </trkpt>
      <trkpt lat="45.63969" lon="5.71418">
        <ele>834</ele>
        <time>2022-09-24T14:54:32.182Z</time>
      </trkpt>
      <trkpt lat="45.6398" lon="5.71408">
        <ele>835</ele>
        <time>2022-09-24T14:54:36.180Z</time>
      </trkpt>
      <trkpt lat="45.6399" lon="5.71398">
        <ele>836</ele>
        <time>2022-09-24T14:54:40.199Z</time>
      </trkpt>
      <trkpt lat="45.63993" lon="5.71381">
        <ele>837</ele>
        <time>2022-09-24T14:54:45.220Z</time>
      </trkpt>
      <trkpt lat="45.63991" lon="5.71367">
        <ele>838</ele>
        <time>2022-09-24T14:54:49.187Z</time>
      </trkpt>
      <trkpt lat="45.63988" lon="5.71354">
        <ele>839</ele>
        <time>2022-09-24T14:54:52.208Z</time>
      </trkpt>
      <trkpt lat="45.63984" lon="5.7134">
        <ele>840</ele>
        <time>2022-09-24T14:54:55.199Z</time>
      </trkpt>
      <trkpt lat="45.63977" lon="5.71325">
        <ele>842</ele>
        <time>2022-09-24T14:54:59.193Z</time>
      </trkpt>
      <trkpt lat="45.6397" lon="5.7131">
        <ele>843</ele>
        <time>2022-09-24T14:55:03.190Z</time>
      </trkpt>
      <trkpt lat="45.63965" lon="5.71296">
        <ele>843</ele>
        <time>2022-09-24T14:55:07.142Z</time>
      </trkpt>
      <trkpt lat="45.63957" lon="5.71283">
        <ele>844</ele>
        <time>2022-09-24T14:55:11.194Z</time>
      </trkpt>
      <trkpt lat="45.63947" lon="5.71279">
        <ele>845</ele>
        <time>2022-09-24T14:55:15.174Z</time>
      </trkpt>
      <trkpt lat="45.63936" lon="5.71279">
        <ele>846</ele>
        <time>2022-09-24T14:55:19.202Z</time>
      </trkpt>
      <trkpt lat="45.63924" lon="5.71275">
        <ele>847</ele>
        <time>2022-09-24T14:55:22.140Z</time>
      </trkpt>
      <trkpt lat="45.63913" lon="5.7127">
        <ele>848</ele>
        <time>2022-09-24T14:55:25.144Z</time>
      </trkpt>
      <trkpt lat="45.63899" lon="5.7126">
        <ele>849</ele>
        <time>2022-09-24T14:55:28.199Z</time>
      </trkpt>
      <trkpt lat="45.63882" lon="5.7125">
        <ele>850</ele>
        <time>2022-09-24T14:55:32.186Z</time>
      </trkpt>
      <trkpt lat="45.6386" lon="5.7126">
        <ele>851</ele>
        <time>2022-09-24T14:55:38.190Z</time>
      </trkpt>
      <trkpt lat="45.63843" lon="5.71275">
        <ele>852</ele>
        <time>2022-09-24T14:55:43.174Z</time>
      </trkpt>
      <trkpt lat="45.63829" lon="5.71291">
        <ele>852</ele>
        <time>2022-09-24T14:55:47.193Z</time>
      </trkpt>
      <trkpt lat="45.63814" lon="5.71309">
        <ele>852</ele>
        <time>2022-09-24T14:55:52.178Z</time>
      </trkpt>
      <trkpt lat="45.63799" lon="5.71321">
        <ele>852</ele>
        <time>2022-09-24T14:55:56.187Z</time>
      </trkpt>
      <trkpt lat="45.63779" lon="5.71323">
        <ele>852</ele>
        <time>2022-09-24T14:56:00.198Z</time>
      </trkpt>
      <trkpt lat="45.63759" lon="5.71316">
        <ele>853</ele>
        <time>2022-09-24T14:56:04.161Z</time>
      </trkpt>
      <trkpt lat="45.63739" lon="5.71306">
        <ele>853</ele>
        <time>2022-09-24T14:56:09.200Z</time>
      </trkpt>
      <trkpt lat="45.6372" lon="5.71293">
        <ele>854</ele>
        <time>2022-09-24T14:56:14.175Z</time>
      </trkpt>
      <trkpt lat="45.63705" lon="5.71282">
        <ele>855</ele>
        <time>2022-09-24T14:56:18.188Z</time>
      </trkpt>
      <trkpt lat="45.63689" lon="5.71275">
        <ele>855</ele>
        <time>2022-09-24T14:56:22.161Z</time>
      </trkpt>
      <trkpt lat="45.63673" lon="5.71273">
        <ele>857</ele>
        <time>2022-09-24T14:56:27.129Z</time>
      </trkpt>
      <trkpt lat="45.63658" lon="5.71266">
        <ele>857</ele>
        <time>2022-09-24T14:56:31.182Z</time>
      </trkpt>
      <trkpt lat="45.63645" lon="5.71257">
        <ele>859</ele>
        <time>2022-09-24T14:56:35.156Z</time>
      </trkpt>
      <trkpt lat="45.63632" lon="5.71245">
        <ele>860</ele>
        <time>2022-09-24T14:56:39.182Z</time>
      </trkpt>
      <trkpt lat="45.6362" lon="5.71233">
        <ele>861</ele>
        <time>2022-09-24T14:56:43.221Z</time>
      </trkpt>
      <trkpt lat="45.63609" lon="5.71216">
        <ele>862</ele>
        <time>2022-09-24T14:56:48.203Z</time>
      </trkpt>
      <trkpt lat="45.63598" lon="5.71201">
        <ele>863</ele>
        <time>2022-09-24T14:56:52.178Z</time>
      </trkpt>
      <trkpt lat="45.63588" lon="5.71185">
        <ele>864</ele>
        <time>2022-09-24T14:56:56.213Z</time>
      </trkpt>
      <trkpt lat="45.63576" lon="5.71175">
        <ele>865</ele>
        <time>2022-09-24T14:57:00.167Z</time>
      </trkpt>
      <trkpt lat="45.63561" lon="5.71164">
        <ele>866</ele>
        <time>2022-09-24T14:57:03.192Z</time>
      </trkpt>
      <trkpt lat="45.63542" lon="5.71155">
        <ele>867</ele>
        <time>2022-09-24T14:57:07.206Z</time>
      </trkpt>
      <trkpt lat="45.63522" lon="5.71155">
        <ele>867</ele>
        <time>2022-09-24T14:57:11.160Z</time>
      </trkpt>
      <trkpt lat="45.63501" lon="5.71147">
        <ele>868</ele>
        <time>2022-09-24T14:57:15.167Z</time>
      </trkpt>
      <trkpt lat="45.63482" lon="5.71133">
        <ele>868</ele>
        <time>2022-09-24T14:57:19.207Z</time>
      </trkpt>
      <trkpt lat="45.63459" lon="5.71114">
        <ele>868</ele>
        <time>2022-09-24T14:57:24.196Z</time>
      </trkpt>
      <trkpt lat="45.63436" lon="5.71094">
        <ele>869</ele>
        <time>2022-09-24T14:57:29.182Z</time>
      </trkpt>
      <trkpt lat="45.63416" lon="5.71076">
        <ele>869</ele>
        <time>2022-09-24T14:57:34.166Z</time>
      </trkpt>
      <trkpt lat="45.63396" lon="5.7106">
        <ele>869</ele>
        <time>2022-09-24T14:57:40.141Z</time>
      </trkpt>
      <trkpt lat="45.63382" lon="5.71056">
        <ele>870</ele>
        <time>2022-09-24T14:57:45.178Z</time>
      </trkpt>
      <trkpt lat="45.63369" lon="5.71057">
        <ele>870</ele>
        <time>2022-09-24T14:57:50.181Z</time>
      </trkpt>
      <trkpt lat="45.6336" lon="5.71052">
        <ele>871</ele>
        <time>2022-09-24T14:57:53.205Z</time>
      </trkpt>
      <trkpt lat="45.63356" lon="5.71039">
        <ele>871</ele>
        <time>2022-09-24T14:57:58.175Z</time>
      </trkpt>
      <trkpt lat="45.6336" lon="5.71025">
        <ele>872</ele>
        <time>2022-09-24T14:58:02.193Z</time>
      </trkpt>
      <trkpt lat="45.63363" lon="5.71012">
        <ele>872</ele>
        <time>2022-09-24T14:58:05.184Z</time>
      </trkpt>
      <trkpt lat="45.63365" lon="5.70999">
        <ele>873</ele>
        <time>2022-09-24T14:58:08.181Z</time>
      </trkpt>
      <trkpt lat="45.63366" lon="5.70984">
        <ele>873</ele>
        <time>2022-09-24T14:58:11.136Z</time>
      </trkpt>
      <trkpt lat="45.63371" lon="5.70964">
        <ele>874</ele>
        <time>2022-09-24T14:58:15.129Z</time>
      </trkpt>
      <trkpt lat="45.63367" lon="5.70947">
        <ele>875</ele>
        <time>2022-09-24T14:58:19.147Z</time>
      </trkpt>
      <trkpt lat="45.63361" lon="5.70928">
        <ele>876</ele>
        <time>2022-09-24T14:58:23.214Z</time>
      </trkpt>
      <trkpt lat="45.63353" lon="5.70909">
        <ele>876</ele>
        <time>2022-09-24T14:58:26.228Z</time>
      </trkpt>
      <trkpt lat="45.63341" lon="5.70883">
        <ele>876</ele>
        <time>2022-09-24T14:58:30.158Z</time>
      </trkpt>
      <trkpt lat="45.63324" lon="5.70864">
        <ele>877</ele>
        <time>2022-09-24T14:58:34.212Z</time>
      </trkpt>
      <trkpt lat="45.63304" lon="5.70848">
        <ele>877</ele>
        <time>2022-09-24T14:58:38.203Z</time>
      </trkpt>
      <trkpt lat="45.63288" lon="5.70819">
        <ele>877</ele>
        <time>2022-09-24T14:58:44.136Z</time>
      </trkpt>
      <trkpt lat="45.63292" lon="5.70795">
        <ele>876</ele>
        <time>2022-09-24T14:58:51.174Z</time>
      </trkpt>
      <trkpt lat="45.63292" lon="5.70794">
        <ele>876</ele>
        <time>2022-09-24T14:59:05.138Z</time>
      </trkpt>
      <trkpt lat="45.63292" lon="5.70794">
        <ele>876</ele>
        <time>2022-09-24T14:59:35.151Z</time>
      </trkpt>
      <trkpt lat="45.63305" lon="5.70763">
        <ele>876</ele>
        <time>2022-09-24T14:59:36.198Z</time>
      </trkpt>
      <trkpt lat="45.63311" lon="5.70751">
        <ele>876</ele>
        <time>2022-09-24T14:59:39.207Z</time>
      </trkpt>
      <trkpt lat="45.63316" lon="5.70736">
        <ele>876</ele>
        <time>2022-09-24T14:59:42.193Z</time>
      </trkpt>
      <trkpt lat="45.63324" lon="5.70719">
        <ele>876</ele>
        <time>2022-09-24T14:59:46.161Z</time>
      </trkpt>
      <trkpt lat="45.63331" lon="5.70698">
        <ele>876</ele>
        <time>2022-09-24T14:59:50.162Z</time>
      </trkpt>
      <trkpt lat="45.63339" lon="5.70677">
        <ele>876</ele>
        <time>2022-09-24T14:59:54.185Z</time>
      </trkpt>
      <trkpt lat="45.63349" lon="5.70654">
        <ele>876</ele>
        <time>2022-09-24T14:59:58.168Z</time>
      </trkpt>
      <trkpt lat="45.63366" lon="5.70637">
        <ele>876</ele>
        <time>2022-09-24T15:00:02.219Z</time>
      </trkpt>
      <trkpt lat="45.63388" lon="5.70623">
        <ele>876</ele>
        <time>2022-09-24T15:00:06.218Z</time>
      </trkpt>
      <trkpt lat="45.63411" lon="5.7062">
        <ele>875</ele>
        <time>2022-09-24T15:00:10.188Z</time>
      </trkpt>
      <trkpt lat="45.63439" lon="5.70615">
        <ele>875</ele>
        <time>2022-09-24T15:00:15.102Z</time>
      </trkpt>
      <trkpt lat="45.63453" lon="5.70584">
        <ele>874</ele>
        <time>2022-09-24T15:00:19.133Z</time>
      </trkpt>
      <trkpt lat="45.63474" lon="5.70546">
        <ele>873</ele>
        <time>2022-09-24T15:00:23.143Z</time>
      </trkpt>
      <trkpt lat="45.63503" lon="5.70508">
        <ele>872</ele>
        <time>2022-09-24T15:00:27.138Z</time>
      </trkpt>
      <trkpt lat="45.63535" lon="5.70469">
        <ele>871</ele>
        <time>2022-09-24T15:00:31.116Z</time>
      </trkpt>
      <trkpt lat="45.6356" lon="5.70416">
        <ele>868</ele>
        <time>2022-09-24T15:00:37.123Z</time>
      </trkpt>
      <trkpt lat="45.63535" lon="5.7036">
        <ele>865</ele>
        <time>2022-09-24T15:00:42.185Z</time>
      </trkpt>
      <trkpt lat="45.63504" lon="5.70314">
        <ele>863</ele>
        <time>2022-09-24T15:00:46.198Z</time>
      </trkpt>
      <trkpt lat="45.63468" lon="5.70264">
        <ele>860</ele>
        <time>2022-09-24T15:00:51.180Z</time>
      </trkpt>
      <trkpt lat="45.63416" lon="5.70267">
        <ele>857</ele>
        <time>2022-09-24T15:00:56.146Z</time>
      </trkpt>
      <trkpt lat="45.63368" lon="5.70303">
        <ele>853</ele>
        <time>2022-09-24T15:01:01.193Z</time>
      </trkpt>
      <trkpt lat="45.63321" lon="5.70342">
        <ele>849</ele>
        <time>2022-09-24T15:01:06.128Z</time>
      </trkpt>
      <trkpt lat="45.6326" lon="5.70347">
        <ele>845</ele>
        <time>2022-09-24T15:01:11.198Z</time>
      </trkpt>
      <trkpt lat="45.63194" lon="5.70344">
        <ele>841</ele>
        <time>2022-09-24T15:01:16.197Z</time>
      </trkpt>
      <trkpt lat="45.63139" lon="5.70312">
        <ele>835</ele>
        <time>2022-09-24T15:01:22.168Z</time>
      </trkpt>
      <trkpt lat="45.63092" lon="5.7027">
        <ele>830</ele>
        <time>2022-09-24T15:01:27.179Z</time>
      </trkpt>
      <trkpt lat="45.63035" lon="5.70248">
        <ele>824</ele>
        <time>2022-09-24T15:01:32.182Z</time>
      </trkpt>
      <trkpt lat="45.62979" lon="5.70209">
        <ele>817</ele>
        <time>2022-09-24T15:01:37.129Z</time>
      </trkpt>
      <trkpt lat="45.62922" lon="5.70178">
        <ele>810</ele>
        <time>2022-09-24T15:01:42.184Z</time>
      </trkpt>
      <trkpt lat="45.62884" lon="5.70115">
        <ele>804</ele>
        <time>2022-09-24T15:01:47.207Z</time>
      </trkpt>
      <trkpt lat="45.62854" lon="5.70048">
        <ele>797</ele>
        <time>2022-09-24T15:01:52.202Z</time>
      </trkpt>
      <trkpt lat="45.62831" lon="5.69981">
        <ele>791</ele>
        <time>2022-09-24T15:01:57.164Z</time>
      </trkpt>
      <trkpt lat="45.62805" lon="5.6992">
        <ele>785</ele>
        <time>2022-09-24T15:02:02.193Z</time>
      </trkpt>
      <trkpt lat="45.62785" lon="5.69855">
        <ele>779</ele>
        <time>2022-09-24T15:02:08.129Z</time>
      </trkpt>
      <trkpt lat="45.62818" lon="5.69823">
        <ele>775</ele>
        <time>2022-09-24T15:02:13.176Z</time>
      </trkpt>
      <trkpt lat="45.62842" lon="5.69768">
        <ele>771</ele>
        <time>2022-09-24T15:02:18.183Z</time>
      </trkpt>
      <trkpt lat="45.62849" lon="5.69711">
        <ele>767</ele>
        <time>2022-09-24T15:02:23.179Z</time>
      </trkpt>
      <trkpt lat="45.62822" lon="5.69663">
        <ele>764</ele>
        <time>2022-09-24T15:02:28.194Z</time>
      </trkpt>
      <trkpt lat="45.6279" lon="5.69612">
        <ele>762</ele>
        <time>2022-09-24T15:02:33.205Z</time>
      </trkpt>
      <trkpt lat="45.62736" lon="5.69612">
        <ele>759</ele>
        <time>2022-09-24T15:02:38.180Z</time>
      </trkpt>
      <trkpt lat="45.62678" lon="5.69625">
        <ele>756</ele>
        <time>2022-09-24T15:02:43.162Z</time>
      </trkpt>
      <trkpt lat="45.6262" lon="5.69639">
        <ele>753</ele>
        <time>2022-09-24T15:02:48.144Z</time>
      </trkpt>
      <trkpt lat="45.62561" lon="5.69654">
        <ele>749</ele>
        <time>2022-09-24T15:02:53.167Z</time>
      </trkpt>
      <trkpt lat="45.62505" lon="5.69668">
        <ele>746</ele>
        <time>2022-09-24T15:02:58.180Z</time>
      </trkpt>
      <trkpt lat="45.62443" lon="5.69668">
        <ele>742</ele>
        <time>2022-09-24T15:03:04.218Z</time>
      </trkpt>
      <trkpt lat="45.62402" lon="5.69635">
        <ele>740</ele>
        <time>2022-09-24T15:03:09.211Z</time>
      </trkpt>
      <trkpt lat="45.6236" lon="5.69613">
        <ele>737</ele>
        <time>2022-09-24T15:03:14.128Z</time>
      </trkpt>
      <trkpt lat="45.62314" lon="5.69605">
        <ele>735</ele>
        <time>2022-09-24T15:03:20.211Z</time>
      </trkpt>
      <trkpt lat="45.62287" lon="5.69634">
        <ele>734</ele>
        <time>2022-09-24T15:03:25.175Z</time>
      </trkpt>
      <trkpt lat="45.62259" lon="5.69664">
        <ele>733</ele>
        <time>2022-09-24T15:03:30.177Z</time>
      </trkpt>
      <trkpt lat="45.62226" lon="5.69672">
        <ele>732</ele>
        <time>2022-09-24T15:03:35.141Z</time>
      </trkpt>
      <trkpt lat="45.6219" lon="5.69674">
        <ele>732</ele>
        <time>2022-09-24T15:03:40.217Z</time>
      </trkpt>
      <trkpt lat="45.62156" lon="5.69675">
        <ele>733</ele>
        <time>2022-09-24T15:03:44.179Z</time>
      </trkpt>
      <trkpt lat="45.62117" lon="5.69683">
        <ele>733</ele>
        <time>2022-09-24T15:03:48.184Z</time>
      </trkpt>
      <trkpt lat="45.6209" lon="5.69733">
        <ele>732</ele>
        <time>2022-09-24T15:03:52.184Z</time>
      </trkpt>
      <trkpt lat="45.62063" lon="5.69794">
        <ele>732</ele>
        <time>2022-09-24T15:03:56.173Z</time>
      </trkpt>
      <trkpt lat="45.62006" lon="5.69844">
        <ele>730</ele>
        <time>2022-09-24T15:04:01.172Z</time>
      </trkpt>
      <trkpt lat="45.61942" lon="5.69879">
        <ele>728</ele>
        <time>2022-09-24T15:04:06.155Z</time>
      </trkpt>
      <trkpt lat="45.61879" lon="5.69917">
        <ele>724</ele>
        <time>2022-09-24T15:04:11.203Z</time>
      </trkpt>
      <trkpt lat="45.61815" lon="5.6996">
        <ele>721</ele>
        <time>2022-09-24T15:04:16.149Z</time>
      </trkpt>
      <trkpt lat="45.61756" lon="5.70005">
        <ele>717</ele>
        <time>2022-09-24T15:04:21.182Z</time>
      </trkpt>
      <trkpt lat="45.61695" lon="5.70049">
        <ele>712</ele>
        <time>2022-09-24T15:04:26.187Z</time>
      </trkpt>
      <trkpt lat="45.61638" lon="5.70089">
        <ele>708</ele>
        <time>2022-09-24T15:04:31.160Z</time>
      </trkpt>
      <trkpt lat="45.61582" lon="5.70099">
        <ele>703</ele>
        <time>2022-09-24T15:04:38.133Z</time>
      </trkpt>
      <trkpt lat="45.61531" lon="5.70082">
        <ele>699</ele>
        <time>2022-09-24T15:04:43.125Z</time>
      </trkpt>
      <trkpt lat="45.61475" lon="5.70084">
        <ele>695</ele>
        <time>2022-09-24T15:04:48.120Z</time>
      </trkpt>
      <trkpt lat="45.61421" lon="5.70081">
        <ele>691</ele>
        <time>2022-09-24T15:04:53.143Z</time>
      </trkpt>
      <trkpt lat="45.6139" lon="5.70018">
        <ele>687</ele>
        <time>2022-09-24T15:04:58.135Z</time>
      </trkpt>
      <trkpt lat="45.61384" lon="5.69937">
        <ele>682</ele>
        <time>2022-09-24T15:05:03.137Z</time>
      </trkpt>
      <trkpt lat="45.61401" lon="5.69855">
        <ele>677</ele>
        <time>2022-09-24T15:05:09.191Z</time>
      </trkpt>
      <trkpt lat="45.61371" lon="5.69795">
        <ele>672</ele>
        <time>2022-09-24T15:05:15.157Z</time>
      </trkpt>
      <trkpt lat="45.61326" lon="5.69804">
        <ele>667</ele>
        <time>2022-09-24T15:05:20.176Z</time>
      </trkpt>
      <trkpt lat="45.61281" lon="5.69831">
        <ele>664</ele>
        <time>2022-09-24T15:05:24.140Z</time>
      </trkpt>
      <trkpt lat="45.61256" lon="5.69899">
        <ele>659</ele>
        <time>2022-09-24T15:05:29.168Z</time>
      </trkpt>
      <trkpt lat="45.61266" lon="5.69977">
        <ele>654</ele>
        <time>2022-09-24T15:05:34.153Z</time>
      </trkpt>
      <trkpt lat="45.61231" lon="5.69957">
        <ele>644</ele>
        <time>2022-09-24T15:05:46.153Z</time>
      </trkpt>
      <trkpt lat="45.61212" lon="5.69906">
        <ele>640</ele>
        <time>2022-09-24T15:05:50.180Z</time>
      </trkpt>
      <trkpt lat="45.61194" lon="5.69839">
        <ele>636</ele>
        <time>2022-09-24T15:05:55.159Z</time>
      </trkpt>
      <trkpt lat="45.61165" lon="5.69861">
        <ele>628</ele>
        <time>2022-09-24T15:06:05.164Z</time>
      </trkpt>
      <trkpt lat="45.61161" lon="5.69909">
        <ele>624</ele>
        <time>2022-09-24T15:06:09.193Z</time>
      </trkpt>
      <trkpt lat="45.61155" lon="5.69962">
        <ele>621</ele>
        <time>2022-09-24T15:06:13.174Z</time>
      </trkpt>
      <trkpt lat="45.61136" lon="5.70017">
        <ele>618</ele>
        <time>2022-09-24T15:06:17.184Z</time>
      </trkpt>
      <trkpt lat="45.61102" lon="5.70086">
        <ele>615</ele>
        <time>2022-09-24T15:06:22.133Z</time>
      </trkpt>
      <trkpt lat="45.61063" lon="5.70151">
        <ele>611</ele>
        <time>2022-09-24T15:06:27.142Z</time>
      </trkpt>
      <trkpt lat="45.61006" lon="5.70196">
        <ele>608</ele>
        <time>2022-09-24T15:06:32.148Z</time>
      </trkpt>
      <trkpt lat="45.60964" lon="5.70264">
        <ele>604</ele>
        <time>2022-09-24T15:06:37.141Z</time>
      </trkpt>
      <trkpt lat="45.60932" lon="5.70344">
        <ele>600</ele>
        <time>2022-09-24T15:06:42.147Z</time>
      </trkpt>
      <trkpt lat="45.60877" lon="5.70362">
        <ele>593</ele>
        <time>2022-09-24T15:06:50.139Z</time>
      </trkpt>
      <trkpt lat="45.60833" lon="5.70326">
        <ele>588</ele>
        <time>2022-09-24T15:06:55.167Z</time>
      </trkpt>
      <trkpt lat="45.60818" lon="5.70265">
        <ele>584</ele>
        <time>2022-09-24T15:07:00.169Z</time>
      </trkpt>
      <trkpt lat="45.60817" lon="5.70192">
        <ele>579</ele>
        <time>2022-09-24T15:07:05.150Z</time>
      </trkpt>
      <trkpt lat="45.60824" lon="5.70117">
        <ele>574</ele>
        <time>2022-09-24T15:07:10.133Z</time>
      </trkpt>
      <trkpt lat="45.60834" lon="5.70045">
        <ele>569</ele>
        <time>2022-09-24T15:07:15.143Z</time>
      </trkpt>
      <trkpt lat="45.60845" lon="5.69973">
        <ele>565</ele>
        <time>2022-09-24T15:07:20.111Z</time>
      </trkpt>
      <trkpt lat="45.60843" lon="5.69904">
        <ele>560</ele>
        <time>2022-09-24T15:07:25.179Z</time>
      </trkpt>
      <trkpt lat="45.60824" lon="5.69838">
        <ele>556</ele>
        <time>2022-09-24T15:07:31.183Z</time>
      </trkpt>
      <trkpt lat="45.60801" lon="5.69791">
        <ele>553</ele>
        <time>2022-09-24T15:07:36.164Z</time>
      </trkpt>
      <trkpt lat="45.608" lon="5.69729">
        <ele>550</ele>
        <time>2022-09-24T15:07:41.157Z</time>
      </trkpt>
      <trkpt lat="45.6081" lon="5.69674">
        <ele>548</ele>
        <time>2022-09-24T15:07:45.152Z</time>
      </trkpt>
      <trkpt lat="45.6082" lon="5.69613">
        <ele>546</ele>
        <time>2022-09-24T15:07:49.132Z</time>
      </trkpt>
      <trkpt lat="45.60831" lon="5.69535">
        <ele>543</ele>
        <time>2022-09-24T15:07:54.155Z</time>
      </trkpt>
      <trkpt lat="45.60841" lon="5.69454">
        <ele>541</ele>
        <time>2022-09-24T15:07:59.146Z</time>
      </trkpt>
      <trkpt lat="45.60868" lon="5.69383">
        <ele>538</ele>
        <time>2022-09-24T15:08:04.163Z</time>
      </trkpt>
      <trkpt lat="45.60894" lon="5.69305">
        <ele>536</ele>
        <time>2022-09-24T15:08:09.111Z</time>
      </trkpt>
      <trkpt lat="45.60914" lon="5.69218">
        <ele>533</ele>
        <time>2022-09-24T15:08:14.157Z</time>
      </trkpt>
      <trkpt lat="45.60932" lon="5.69132">
        <ele>529</ele>
        <time>2022-09-24T15:08:19.124Z</time>
      </trkpt>
      <trkpt lat="45.60946" lon="5.69044">
        <ele>524</ele>
        <time>2022-09-24T15:08:24.117Z</time>
      </trkpt>
      <trkpt lat="45.60963" lon="5.68957">
        <ele>519</ele>
        <time>2022-09-24T15:08:29.167Z</time>
      </trkpt>
      <trkpt lat="45.60983" lon="5.68867">
        <ele>513</ele>
        <time>2022-09-24T15:08:34.146Z</time>
      </trkpt>
      <trkpt lat="45.60992" lon="5.68773">
        <ele>507</ele>
        <time>2022-09-24T15:08:39.143Z</time>
      </trkpt>
      <trkpt lat="45.60985" lon="5.6868">
        <ele>500</ele>
        <time>2022-09-24T15:08:44.147Z</time>
      </trkpt>
      <trkpt lat="45.61003" lon="5.6859">
        <ele>494</ele>
        <time>2022-09-24T15:08:49.152Z</time>
      </trkpt>
      <trkpt lat="45.61014" lon="5.68511">
        <ele>486</ele>
        <time>2022-09-24T15:08:55.156Z</time>
      </trkpt>
      <trkpt lat="45.60979" lon="5.68462">
        <ele>480</ele>
        <time>2022-09-24T15:09:00.139Z</time>
      </trkpt>
      <trkpt lat="45.60961" lon="5.68388">
        <ele>474</ele>
        <time>2022-09-24T15:09:05.152Z</time>
      </trkpt>
      <trkpt lat="45.60953" lon="5.68318">
        <ele>468</ele>
        <time>2022-09-24T15:09:10.149Z</time>
      </trkpt>
      <trkpt lat="45.60945" lon="5.68256">
        <ele>461</ele>
        <time>2022-09-24T15:09:16.140Z</time>
      </trkpt>
      <trkpt lat="45.60968" lon="5.68216">
        <ele>455</ele>
        <time>2022-09-24T15:09:22.149Z</time>
      </trkpt>
      <trkpt lat="45.60972" lon="5.68176">
        <ele>450</ele>
        <time>2022-09-24T15:09:29.168Z</time>
      </trkpt>
      <trkpt lat="45.60972" lon="5.68145">
        <ele>447</ele>
        <time>2022-09-24T15:09:33.165Z</time>
      </trkpt>
      <trkpt lat="45.60978" lon="5.68115">
        <ele>445</ele>
        <time>2022-09-24T15:09:38.153Z</time>
      </trkpt>
      <trkpt lat="45.60984" lon="5.68084">
        <ele>443</ele>
        <time>2022-09-24T15:09:43.151Z</time>
      </trkpt>
      <trkpt lat="45.60986" lon="5.68058">
        <ele>441</ele>
        <time>2022-09-24T15:09:47.164Z</time>
      </trkpt>
      <trkpt lat="45.60989" lon="5.68031">
        <ele>440</ele>
        <time>2022-09-24T15:09:52.151Z</time>
      </trkpt>
      <trkpt lat="45.60984" lon="5.68047">
        <ele>439</ele>
        <time>2022-09-24T15:10:00.135Z</time>
      </trkpt>
      <trkpt lat="45.60981" lon="5.68062">
        <ele>438</ele>
        <time>2022-09-24T15:10:03.136Z</time>
      </trkpt>
      <trkpt lat="45.60979" lon="5.68079">
        <ele>438</ele>
        <time>2022-09-24T15:10:06.137Z</time>
      </trkpt>
      <trkpt lat="45.60977" lon="5.68102">
        <ele>438</ele>
        <time>2022-09-24T15:10:10.140Z</time>
      </trkpt>
      <trkpt lat="45.60972" lon="5.68125">
        <ele>438</ele>
        <time>2022-09-24T15:10:14.136Z</time>
      </trkpt>
      <trkpt lat="45.60966" lon="5.68151">
        <ele>438</ele>
        <time>2022-09-24T15:10:19.144Z</time>
      </trkpt>
      <trkpt lat="45.60965" lon="5.68175">
        <ele>438</ele>
        <time>2022-09-24T15:10:24.116Z</time>
      </trkpt>
      <trkpt lat="45.60969" lon="5.68192">
        <ele>438</ele>
        <time>2022-09-24T15:10:28.161Z</time>
      </trkpt>
      <trkpt lat="45.60981" lon="5.68187">
        <ele>438</ele>
        <time>2022-09-24T15:10:34.137Z</time>
      </trkpt>
      <trkpt lat="45.60987" lon="5.68174">
        <ele>439</ele>
        <time>2022-09-24T15:10:38.148Z</time>
      </trkpt>
      <trkpt lat="45.60993" lon="5.68161">
        <ele>439</ele>
        <time>2022-09-24T15:10:42.151Z</time>
      </trkpt>
      <trkpt lat="45.60998" lon="5.68148">
        <ele>439</ele>
        <time>2022-09-24T15:10:47.139Z</time>
      </trkpt>
      <trkpt lat="45.60993" lon="5.68163">
        <ele>440</ele>
        <time>2022-09-24T15:10:54.164Z</time>
      </trkpt>
      <trkpt lat="45.60986" lon="5.68177">
        <ele>440</ele>
        <time>2022-09-24T15:10:57.143Z</time>
      </trkpt>
      <trkpt lat="45.60982" lon="5.68189">
        <ele>441</ele>
        <time>2022-09-24T15:10:59.175Z</time>
      </trkpt>
      <trkpt lat="45.6097" lon="5.68175">
        <ele>441</ele>
        <time>2022-09-24T15:11:05.158Z</time>
      </trkpt>
      <trkpt lat="45.60972" lon="5.68149">
        <ele>442</ele>
        <time>2022-09-24T15:11:08.170Z</time>
      </trkpt>
      <trkpt lat="45.60976" lon="5.68118">
        <ele>442</ele>
        <time>2022-09-24T15:11:11.193Z</time>
      </trkpt>
      <trkpt lat="45.60981" lon="5.68079">
        <ele>442</ele>
        <time>2022-09-24T15:11:15.139Z</time>
      </trkpt>
      <trkpt lat="45.60985" lon="5.68033">
        <ele>442</ele>
        <time>2022-09-24T15:11:20.160Z</time>
      </trkpt>
      <trkpt lat="45.60991" lon="5.67993">
        <ele>442</ele>
        <time>2022-09-24T15:11:25.171Z</time>
      </trkpt>
      <trkpt lat="45.60998" lon="5.67957">
        <ele>441</ele>
        <time>2022-09-24T15:11:29.165Z</time>
      </trkpt>
      <trkpt lat="45.61015" lon="5.67922">
        <ele>441</ele>
        <time>2022-09-24T15:11:33.174Z</time>
      </trkpt>
      <trkpt lat="45.61039" lon="5.67894">
        <ele>440</ele>
        <time>2022-09-24T15:11:37.151Z</time>
      </trkpt>
      <trkpt lat="45.61064" lon="5.67857">
        <ele>439</ele>
        <time>2022-09-24T15:11:43.127Z</time>
      </trkpt>
      <trkpt lat="45.61049" lon="5.67845">
        <ele>437</ele>
        <time>2022-09-24T15:11:51.165Z</time>
      </trkpt>
      <trkpt lat="45.61048" lon="5.67842">
        <ele>434</ele>
        <time>2022-09-24T15:12:08.138Z</time>
      </trkpt>
      <trkpt lat="45.61048" lon="5.67842">
        <ele>434</ele>
        <time>2022-09-24T15:12:58.000Z</time>
      </trkpt>
    </trkseg>
  </trk>
</gpx>